Observation data for Junction on 12/09/2018      Previous  Date  Next       Current Mesonet Observations  Soil Data  Daily Summary Page  Observations in Plain Language
KJU1 090600Z 31006KT 04/01 A3034 RMK A01 T00400013  RH  083%=      5-min Rain = 0
KJU1 090601Z 32007KT 04/01 A3034 RMK A01 T00400012  RH  082%=      5-min Rain = 0
KJU1 090602Z 31005KT 04/01 A3034 RMK A01 T00400012  RH  082%=      5-min Rain = 0
KJU1 090603Z 32004KT 04/01 A3034 RMK A01 T00400012  RH  082%=      5-min Rain = 0
KJU1 090604Z 33004KT 04/01 A3034 RMK A01 T00390012  RH  082%=      5-min Rain = 0
KJU1 090605Z 34004KT 04/01 A3034 RMK A01 T00390012  RH  082%=      5-min Rain = 0
KJU1 090606Z 33005KT 04/01 A3034 RMK A01 T00390012  RH  083%=      5-min Rain = 0
KJU1 090607Z 34007KT 04/01 A3033 RMK A01 T00390012  RH  082%=      5-min Rain = 0
KJU1 090608Z 34006KT 04/01 A3033 RMK A01 T00390012  RH  082%=      5-min Rain = 0
KJU1 090609Z 34005KT 04/01 A3033 RMK A01 T00390012  RH  082%=      5-min Rain = 0
KJU1 090610Z 34005KT 04/01 A3033 RMK A01 T00390011  RH  082%=      5-min Rain = 0
KJU1 090611Z 35004KT 04/01 A3033 RMK A01 T00390011  RH  082%=      5-min Rain = 0
KJU1 090612Z 33003KT 04/01 A3033 RMK A01 T00390011  RH  082%=      5-min Rain = 0
KJU1 090613Z 00006KT 04/01 A3033 RMK A01 T00390012  RH  082%=      5-min Rain = 0
KJU1 090614Z 01006KT 04/01 A3033 RMK A01 T00390011  RH  082%=      5-min Rain = 0
KJU1 090615Z 00006KT 04/01 A3033 RMK A01 T00390010  RH  082%=      5-min Rain = 0
KJU1 090616Z 35005KT 04/01 A3033 RMK A01 T00390010  RH  082%=      5-min Rain = 0
KJU1 090617Z 35004KT 04/01 A3033 RMK A01 T00390010  RH  082%=      5-min Rain = 0
KJU1 090618Z 35004KT 04/01 A3033 RMK A01 T00390011  RH  082%=      5-min Rain = 0
KJU1 090619Z 35005KT 04/01 A3033 RMK A01 T00390011  RH  082%=      5-min Rain = 0
KJU1 090620Z 36005KT 04/01 A3033 RMK A01 T00390011  RH  082%=      5-min Rain = 0
KJU1 090621Z 00004KT 04/01 A3033 RMK A01 T00390011  RH  082%=      5-min Rain = 0
KJU1 090622Z 36003KT 04/01 A3033 RMK A01 T00390012  RH  082%=      5-min Rain = 0
KJU1 090623Z 34004KT 04/01 A3033 RMK A01 T00390012  RH  083%=      5-min Rain = 0
KJU1 090624Z 34004KT 04/01 A3033 RMK A01 T00390013  RH  083%=      5-min Rain = 0
KJU1 090625Z 34004KT 04/01 A3033 RMK A01 T00390013  RH  083%=      5-min Rain = 0
KJU1 090626Z 36005KT 04/01 A3033 RMK A01 T00390012  RH  083%=      5-min Rain = 0
KJU1 090627Z 35003KT 04/01 A3033 RMK A01 T00380012  RH  083%=      5-min Rain = 0
KJU1 090628Z 33002KT 04/01 A3032 RMK A01 T00390013  RH  083%=      5-min Rain = 0
KJU1 090629Z 34003KT 04/01 A3032 RMK A01 T00390013  RH  083%=      5-min Rain = 0
KJU1 090630Z 35005KT 04/01 A3032 RMK A01 T00380012  RH  083%=      5-min Rain = 0
KJU1 090631Z 34004KT 04/01 A3032 RMK A01 T00380012  RH  083%=      5-min Rain = 0
KJU1 090632Z 33003KT 04/01 A3032 RMK A01 T00380012  RH  083%=      5-min Rain = 0
KJU1 090633Z 34004KT 04/01 A3032 RMK A01 T00380012  RH  083%=      5-min Rain = 0
KJU1 090634Z 30002KT 04/01 A3032 RMK A01 T00380012  RH  083%=      5-min Rain = 0
KJU1 090635Z 31003KT 04/01 A3032 RMK A01 T00380012  RH  083%=      5-min Rain = 0
KJU1 090636Z 31004KT 04/01 A3032 RMK A01 T00380012  RH  083%=      5-min Rain = 0
KJU1 090637Z 33004KT 04/01 A3032 RMK A01 T00380011  RH  083%=      5-min Rain = 0
KJU1 090638Z 32004KT 04/01 A3032 RMK A01 T00370011  RH  083%=      5-min Rain = 0
KJU1 090639Z 32005KT 04/01 A3032 RMK A01 T00370011  RH  083%=      5-min Rain = 0
KJU1 090640Z 32004KT 04/01 A3032 RMK A01 T00380011  RH  083%=      5-min Rain = 0
KJU1 090641Z 33004KT 04/01 A3032 RMK A01 T00380012  RH  083%=      5-min Rain = 0
KJU1 090642Z 32005KT 04/01 A3032 RMK A01 T00380011  RH  083%=      5-min Rain = 0
KJU1 090643Z 33005KT 04/01 A3032 RMK A01 T00370011  RH  083%=      5-min Rain = 0
KJU1 090644Z 32006KT 04/01 A3032 RMK A01 T00370011  RH  083%=      5-min Rain = 0
KJU1 090645Z 31005KT 04/01 A3032 RMK A01 T00370011  RH  083%=      5-min Rain = 0
KJU1 090646Z 31004KT 04/01 A3032 RMK A01 T00370011  RH  083%=      5-min Rain = 0
KJU1 090647Z 33004KT 04/01 A3032 RMK A01 T00370011  RH  083%=      5-min Rain = 0
KJU1 090648Z 33003KT 04/01 A3032 RMK A01 T00370012  RH  083%=      5-min Rain = 0
KJU1 090649Z 36004KT 04/01 A3032 RMK A01 T00370012  RH  084%=      5-min Rain = 0
KJU1 090650Z 35004KT 04/01 A3032 RMK A01 T00370011  RH  083%=      5-min Rain = 0
KJU1 090651Z 35003KT 04/01 A3032 RMK A01 T00370011  RH  083%=      5-min Rain = 0
KJU1 090652Z 33005KT 04/01 A3032 RMK A01 T00370011  RH  084%=      5-min Rain = 0
KJU1 090653Z 34004KT 04/01 A3032 RMK A01 T00370011  RH  084%=      5-min Rain = 0
KJU1 090654Z 31004KT 04/01 A3032 RMK A01 T00370011  RH  084%=      5-min Rain = 0
KJU1 090655Z 32005KT 04/01 A3032 RMK A01 T00370012  RH  084%=      5-min Rain = 0
KJU1 090656Z 32005KT 04/01 A3032 RMK A01 T00370012  RH  084%=      5-min Rain = 0
KJU1 090657Z 33006KT 04/01 A3032 RMK A01 T00360010  RH  083%=      5-min Rain = 0
KJU1 090658Z 32005KT 04/01 A3032 RMK A01 T00360010  RH  083%=      5-min Rain = 0
KJU1 090659Z 32005KT 04/01 A3032 RMK A01 T00360010  RH  083%=      5-min Rain = 0
KJU1 090700Z 33008KT 04/01 A3032 RMK A01 T00360010  RH  083%=      5-min Rain = 0
KJU1 090701Z 31007KT 04/01 A3032 RMK A01 T00350009  RH  083%=      5-min Rain = 0
KJU1 090702Z 32005KT 04/01 A3032 RMK A01 T00350009  RH  083%=      5-min Rain = 0
KJU1 090703Z 33005KT 04/01 A3032 RMK A01 T00350009  RH  083%=      5-min Rain = 0
KJU1 090704Z 33006KT 04/01 A3032 RMK A01 T00350009  RH  083%=      5-min Rain = 0
KJU1 090705Z 34005KT 04/01 A3032 RMK A01 T00360009  RH  083%=      5-min Rain = 0
KJU1 090706Z 31003KT 04/01 A3032 RMK A01 T00350009  RH  083%=      5-min Rain = 0
KJU1 090707Z 32004KT 04/01 A3032 RMK A01 T00350010  RH  083%=      5-min Rain = 0
KJU1 090708Z 32004KT 04/01 A3032 RMK A01 T00350010  RH  083%=      5-min Rain = 0
KJU1 090709Z 31003KT 04/01 A3032 RMK A01 T00350010  RH  084%=      5-min Rain = 0
KJU1 090710Z 31006KT 04/01 A3032 RMK A01 T00350011  RH  084%=      5-min Rain = 0
KJU1 090711Z 30005KT 04/01 A3032 RMK A01 T00350010  RH  084%=      5-min Rain = 0
KJU1 090712Z 32004KT 04/01 A3032 RMK A01 T00350009  RH  083%=      5-min Rain = 0
KJU1 090713Z 32005KT 04/01 A3032 RMK A01 T00350009  RH  083%=      5-min Rain = 0
KJU1 090714Z 31003KT 03/01 A3032 RMK A01 T00340009  RH  083%=      5-min Rain = 0
KJU1 090715Z 31005KT 03/01 A3032 RMK A01 T00340009  RH  084%=      5-min Rain = 0
KJU1 090716Z 31008KT 03/01 A3032 RMK A01 T00340009  RH  083%=      5-min Rain = 0
KJU1 090717Z 34007KT 03/01 A3032 RMK A01 T00340007  RH  083%=      5-min Rain = 0
KJU1 090718Z 33005KT 03/01 A3032 RMK A01 T00340006  RH  082%=      5-min Rain = 0
KJU1 090719Z 32005KT 03/01 A3032 RMK A01 T00340007  RH  082%=      5-min Rain = 0
KJU1 090720Z 34006KT 03/01 A3032 RMK A01 T00340006  RH  082%=      5-min Rain = 0
KJU1 090721Z 34006KT 03/01 A3032 RMK A01 T00340006  RH  082%=      5-min Rain = 0
KJU1 090722Z 34005KT 03/01 A3032 RMK A01 T00340006  RH  082%=      5-min Rain = 0
KJU1 090723Z 34003KT 03/01 A3032 RMK A01 T00340006  RH  082%=      5-min Rain = 0
KJU1 090724Z 35006KT 03/01 A3032 RMK A01 T00340007  RH  082%=      5-min Rain = 0
KJU1 090725Z 34005KT 03/01 A3032 RMK A01 T00340006  RH  082%=      5-min Rain = 0
KJU1 090726Z 33006KT 03/01 A3032 RMK A01 T00340006  RH  082%=      5-min Rain = 0
KJU1 090727Z 33005KT 03/01 A3032 RMK A01 T00340006  RH  082%=      5-min Rain = 0
KJU1 090728Z 33004KT 03/01 A3032 RMK A01 T00340006  RH  082%=      5-min Rain = 0
KJU1 090729Z 34004KT 03/01 A3032 RMK A01 T00340006  RH  082%=      5-min Rain = 0
KJU1 090730Z 34006KT 03/01 A3032 RMK A01 T00340006  RH  082%=      5-min Rain = 0
KJU1 090731Z 32004KT 03/01 A3032 RMK A01 T00340006  RH  082%=      5-min Rain = 0
KJU1 090732Z 32005KT 03/01 A3032 RMK A01 T00340007  RH  082%=      5-min Rain = 0
KJU1 090733Z 32004KT 03/01 A3032 RMK A01 T00340007  RH  082%=      5-min Rain = 0
KJU1 090734Z 32004KT 03/01 A3032 RMK A01 T00340006  RH  082%=      5-min Rain = 0
KJU1 090735Z 33004KT 03/01 A3032 RMK A01 T00340007  RH  082%=      5-min Rain = 0
KJU1 090736Z 32003KT 03/01 A3032 RMK A01 T00340007  RH  082%=      5-min Rain = 0
KJU1 090737Z 34003KT 03/01 A3032 RMK A01 T00340006  RH  082%=      5-min Rain = 0
KJU1 090738Z 35004KT 03/01 A3032 RMK A01 T00340007  RH  082%=      5-min Rain = 0
KJU1 090739Z 33004KT 03/01 A3032 RMK A01 T00340007  RH  083%=      5-min Rain = 0
KJU1 090740Z 34004KT 03/01 A3032 RMK A01 T00340007  RH  083%=      5-min Rain = 0
KJU1 090741Z 35005KT 03/01 A3032 RMK A01 T00340007  RH  082%=      5-min Rain = 0
KJU1 090742Z 34004KT 03/01 A3032 RMK A01 T00330006  RH  082%=      5-min Rain = 0
KJU1 090743Z 35005KT 03/01 A3032 RMK A01 T00330006  RH  083%=      5-min Rain = 0
KJU1 090744Z 34005KT 03/01 A3032 RMK A01 T00330006  RH  083%=      5-min Rain = 0
KJU1 090745Z 34003KT 03/01 A3032 RMK A01 T00330006  RH  083%=      5-min Rain = 0
KJU1 090746Z 34004KT 03/01 A3032 RMK A01 T00320006  RH  083%=      5-min Rain = 0
KJU1 090747Z 34004KT 03/01 A3032 RMK A01 T00320006  RH  083%=      5-min Rain = 0
KJU1 090748Z 34005KT 03/01 A3032 RMK A01 T00320006  RH  083%=      5-min Rain = 0
KJU1 090749Z 34003KT 03/01 A3032 RMK A01 T00320006  RH  083%=      5-min Rain = 0
KJU1 090750Z 34003KT 03/01 A3032 RMK A01 T00310006  RH  084%=      5-min Rain = 0
KJU1 090751Z 35003KT 03/01 A3032 RMK A01 T00310006  RH  084%=      5-min Rain = 0
KJU1 090752Z 34003KT 03/01 A3032 RMK A01 T00310006  RH  084%=      5-min Rain = 0
KJU1 090753Z 34004KT 03/01 A3032 RMK A01 T00300005  RH  084%=      5-min Rain = 0
KJU1 090754Z 33004KT 03/01 A3032 RMK A01 T00300005  RH  084%=      5-min Rain = 0
KJU1 090755Z 34002KT 03/01 A3032 RMK A01 T00300005  RH  084%=      5-min Rain = 0
KJU1 090756Z 35003KT 03/01 A3032 RMK A01 T00300006  RH  084%=      5-min Rain = 0
KJU1 090757Z 34002KT 03/01 A3032 RMK A01 T00300006  RH  084%=      5-min Rain = 0
KJU1 090758Z 35001KT 03/01 A3032 RMK A01 T00300006  RH  084%=      5-min Rain = 0
KJU1 090759Z 33001KT 03/01 A3032 RMK A01 T00290006  RH  084%=      5-min Rain = 0
KJU1 090800Z 34002KT 03/01 A3032 RMK A01 T00290005  RH  084%=      5-min Rain = 0
KJU1 090801Z 34002KT 03/01 A3032 RMK A01 T00290005  RH  085%=      5-min Rain = 0
KJU1 090802Z 35002KT 03/01 A3032 RMK A01 T00280005  RH  085%=      5-min Rain = 0
KJU1 090803Z 36001KT 03/01 A3032 RMK A01 T00280005  RH  085%=      5-min Rain = 0
KJU1 090804Z 33003KT 03/01 A3032 RMK A01 T00280005  RH  085%=      5-min Rain = 0
KJU1 090805Z 34002KT 03/01 A3032 RMK A01 T00280005  RH  085%=      5-min Rain = 0
KJU1 090806Z 34002KT 03/01 A3032 RMK A01 T00280005  RH  085%=      5-min Rain = 0
KJU1 090807Z 00002KT 03/01 A3032 RMK A01 T00280005  RH  085%=      5-min Rain = 0
KJU1 090808Z 34002KT 03/01 A3031 RMK A01 T00280005  RH  085%=      5-min Rain = 0
KJU1 090809Z 34001KT 03/01 A3031 RMK A01 T00280005  RH  085%=      5-min Rain = 0
KJU1 090810Z 35002KT 03/00 A3032 RMK A01 T00280004  RH  085%=      5-min Rain = 0
KJU1 090811Z 34002KT 03/01 A3031 RMK A01 T00270005  RH  085%=      5-min Rain = 0
KJU1 090812Z 34002KT 03/01 A3031 RMK A01 T00270005  RH  085%=      5-min Rain = 0
KJU1 090813Z 34002KT 03/01 A3031 RMK A01 T00270005  RH  085%=      5-min Rain = 0
KJU1 090814Z 34002KT 03/01 A3031 RMK A01 T00270005  RH  086%=      5-min Rain = 0
KJU1 090815Z 34002KT 03/01 A3031 RMK A01 T00270005  RH  086%=      5-min Rain = 0
KJU1 090816Z 35002KT 03/01 A3031 RMK A01 T00260005  RH  086%=      5-min Rain = 0
KJU1 090817Z 34002KT 03/01 A3031 RMK A01 T00260005  RH  086%=      5-min Rain = 0
KJU1 090818Z 34001KT 03/01 A3031 RMK A01 T00260005  RH  086%=      5-min Rain = 0
KJU1 090819Z 34001KT 03/01 A3031 RMK A01 T00260005  RH  086%=      5-min Rain = 0
KJU1 090820Z 32001KT 03/01 A3031 RMK A01 T00250005  RH  086%=      5-min Rain = 0
KJU1 090821Z 32001KT 03/00 A3031 RMK A01 T00250004  RH  086%=      5-min Rain = 0
KJU1 090822Z 31001KT 03/00 A3031 RMK A01 T00250004  RH  087%=      5-min Rain = 0
KJU1 090823Z 31001KT 02/00 A3031 RMK A01 T00240003  RH  087%=      5-min Rain = 0
KJU1 090824Z 31001KT 02/00 A3031 RMK A01 T00230003  RH  087%=      5-min Rain = 0
KJU1 090825Z 31001KT 02/00 A3031 RMK A01 T00220002  RH  087%=      5-min Rain = 0
KJU1 090826Z 31001KT 02/00 A3031 RMK A01 T00210001  RH  087%=      5-min Rain = 0
KJU1 090827Z 32001KT 02/M00 A3031 RMK A01 T00191001  RH  087%=      5-min Rain = 0
KJU1 090828Z 32001KT 02/M00 A3031 RMK A01 T00181002  RH  087%=      5-min Rain = 0
KJU1 090829Z 32001KT 02/M00 A3031 RMK A01 T00171001  RH  088%=      5-min Rain = 0
KJU1 090830Z 33001KT 02/M00 A303 RMK A01 T00161003  RH  088%=      5-min Rain = 0
KJU1 090831Z 33001KT 02/M00 A303 RMK A01 T00151002  RH  089%=      5-min Rain = 0
KJU1 090832Z 33000KT 02/M00 A303 RMK A01 T00151002  RH  089%=      5-min Rain = 0
KJU1 090833Z 35001KT 01/M00 A303 RMK A01 T00131003  RH  089%=      5-min Rain = 0
KJU1 090834Z 35001KT 01/M01 A303 RMK A01 T00111005  RH  089%=      5-min Rain = 0
KJU1 090835Z 00000KT 01/M01 A303 RMK A01 T00091006  RH  089%=      5-min Rain = 0
KJU1 090836Z 35000KT 01/M01 A303 RMK A01 T00081007  RH  090%=      5-min Rain = 0
KJU1 090837Z 00000KT 01/M01 A303 RMK A01 T00061008  RH  090%=      5-min Rain = 0
KJU1 090838Z 00000KT 01/M01 A303 RMK A01 T00051009  RH  091%=      5-min Rain = 0
KJU1 090839Z 34000KT 00/M01 A303 RMK A01 T00041009  RH  091%=      5-min Rain = 0
KJU1 090840Z 34000KT 00/M01 A303 RMK A01 T00041008  RH  092%=      5-min Rain = 0
KJU1 090841Z 00000KT 00/M01 A303 RMK A01 T00041008  RH  092%=      5-min Rain = 0
KJU1 090842Z 00000KT 00/M01 A303 RMK A01 T00031009  RH  092%=      5-min Rain = 0
KJU1 090843Z 00000KT 00/M01 A303 RMK A01 T00021010  RH  092%=      5-min Rain = 0
KJU1 090844Z 01000KT 00/M01 A3029 RMK A01 T00011010  RH  092%=      5-min Rain = 0
KJU1 090845Z 01000KT 00/M01 A3029 RMK A01 T00011010  RH  092%=      5-min Rain = 0
KJU1 090846Z 34001KT 00/01 A3029 RMK A01 T00000-11  RH  093%=      5-min Rain = 0
KJU1 090847Z 34001KT 00/01 A3029 RMK A01 T00-00-11  RH  093%=      5-min Rain = 0
KJU1 090848Z 34000KT M00/M01 A3029 RMK A01 T10011011  RH  093%=      5-min Rain = 0
KJU1 090849Z 00000KT M00/M01 A3029 RMK A01 T10011011  RH  093%=      5-min Rain = 0
KJU1 090850Z 00000KT M00/M01 A3029 RMK A01 T10021012  RH  093%=      5-min Rain = 0
KJU1 090851Z 00000KT M00/M01 A3029 RMK A01 T10021012  RH  093%=      5-min Rain = 0
KJU1 090852Z 00000KT M00/M01 A3029 RMK A01 T10031012  RH  093%=      5-min Rain = 0
KJU1 090853Z 00000KT M00/M01 A3029 RMK A01 T10031012  RH  094%=      5-min Rain = 0
KJU1 090854Z 00000KT M00/M01 A3029 RMK A01 T10021010  RH  094%=      5-min Rain = 0
KJU1 090855Z 00000KT M00/M01 A3029 RMK A01 T10021010  RH  094%=      5-min Rain = 0
KJU1 090856Z 00000KT M00/M01 A3029 RMK A01 T10021010  RH  094%=      5-min Rain = 0
KJU1 090857Z 24001KT M00/M01 A3029 RMK A01 T10021010  RH  094%=      5-min Rain = 0
KJU1 090858Z 24001KT M00/M01 A3029 RMK A01 T10021010  RH  095%=      5-min Rain = 0
KJU1 090859Z 24001KT M00/M01 A3029 RMK A01 T10021009  RH  095%=      5-min Rain = 0
KJU1 090900Z 24001KT M00/M01 A3029 RMK A01 T10021008  RH  095%=      5-min Rain = 0
KJU1 090901Z 24001KT M00/M01 A3029 RMK A01 T10011007  RH  095%=      5-min Rain = 0
KJU1 090902Z 24001KT M00/M01 A3029 RMK A01 T10011007  RH  095%=      5-min Rain = 0
KJU1 090903Z 24001KT M00/M01 A3029 RMK A01 T10011008  RH  095%=      5-min Rain = 0
KJU1 090904Z 24001KT M00/M01 A3029 RMK A01 T10021008  RH  095%=      5-min Rain = 0
KJU1 090905Z 24000KT M00/M01 A3029 RMK A01 T10021008  RH  095%=      5-min Rain = 0
KJU1 090906Z 24000KT M00/M01 A303 RMK A01 T10021009  RH  095%=      5-min Rain = 0
KJU1 090907Z 00000KT M00/M01 A303 RMK A01 T10041011  RH  095%=      5-min Rain = 0
KJU1 090908Z 00000KT M00/M01 A303 RMK A01 T10041011  RH  095%=      5-min Rain = 0
KJU1 090909Z 00000KT M01/M01 A303 RMK A01 T10051012  RH  095%=      5-min Rain = 0
KJU1 090910Z 00000KT M01/M01 A303 RMK A01 T10051011  RH  095%=      5-min Rain = 0
KJU1 090911Z 00000KT M01/M01 A303 RMK A01 T10051011  RH  096%=      5-min Rain = 0
KJU1 090912Z 00000KT M00/M01 A3029 RMK A01 T10041010  RH  096%=      5-min Rain = 0
KJU1 090913Z 00000KT M00/M01 A3029 RMK A01 T10041010  RH  096%=      5-min Rain = 0
KJU1 090914Z 00000KT M01/M01 A303 RMK A01 T10051011  RH  096%=      5-min Rain = 0
KJU1 090915Z 00000KT M01/M01 A303 RMK A01 T10071013  RH  095%=      5-min Rain = 0
KJU1 090916Z 00000KT M01/M02 A303 RMK A01 T10091016  RH  095%=      5-min Rain = 0
KJU1 090917Z 00000KT M01/M02 A303 RMK A01 T10111018  RH  095%=      5-min Rain = 0
KJU1 090918Z 00000KT M01/M02 A3029 RMK A01 T10121019  RH  095%=      5-min Rain = 0
KJU1 090919Z 00000KT M01/M02 A3029 RMK A01 T10131020  RH  095%=      5-min Rain = 0
KJU1 090920Z 00000KT M01/M02 A3029 RMK A01 T10131020  RH  095%=      5-min Rain = 0
KJU1 090921Z 00000KT M01/M02 A3029 RMK A01 T10131019  RH  096%=      5-min Rain = 0
KJU1 090922Z 00000KT M01/M02 A3029 RMK A01 T10121018  RH  096%=      5-min Rain = 0
KJU1 090923Z 00000KT M01/M02 A3029 RMK A01 T10121018  RH  096%=      5-min Rain = 0
KJU1 090924Z 00000KT M01/M02 A3029 RMK A01 T10121017  RH  096%=      5-min Rain = 0
KJU1 090925Z 00000KT M01/M02 A3029 RMK A01 T10121018  RH  096%=      5-min Rain = 0
KJU1 090926Z 00000KT M01/M02 A3029 RMK A01 T10121018  RH  096%=      5-min Rain = 0
KJU1 090927Z 00000KT M01/M02 A3029 RMK A01 T10121018  RH  096%=      5-min Rain = 0
KJU1 090928Z 00000KT M01/M02 A3029 RMK A01 T10131018  RH  096%=      5-min Rain = 0
KJU1 090929Z 00000KT M01/M02 A303 RMK A01 T10131019  RH  096%=      5-min Rain = 0
KJU1 090930Z 00000KT M01/M02 A303 RMK A01 T10141019  RH  096%=      5-min Rain = 0
KJU1 090931Z 00000KT M01/M02 A303 RMK A01 T10141020  RH  096%=      5-min Rain = 0
KJU1 090932Z 00000KT M01/M02 A303 RMK A01 T10141020  RH  096%=      5-min Rain = 0
KJU1 090933Z 00000KT M01/M02 A303 RMK A01 T10141019  RH  096%=      5-min Rain = 0
KJU1 090934Z 00000KT M01/M02 A303 RMK A01 T10131018  RH  097%=      5-min Rain = 0
KJU1 090935Z 00000KT M01/M02 A303 RMK A01 T10131018  RH  097%=      5-min Rain = 0
KJU1 090936Z 00000KT M01/M02 A303 RMK A01 T10131017  RH  097%=      5-min Rain = 0
KJU1 090937Z 24000KT M01/M02 A303 RMK A01 T10131018  RH  097%=      5-min Rain = 0
KJU1 090938Z 23001KT M01/M02 A303 RMK A01 T10131018  RH  097%=      5-min Rain = 0
KJU1 090939Z 23000KT M01/M02 A303 RMK A01 T10141018  RH  097%=      5-min Rain = 0
KJU1 090940Z 00000KT M01/M02 A303 RMK A01 T10141019  RH  097%=      5-min Rain = 0
KJU1 090941Z 23000KT M02/M02 A303 RMK A01 T10151020  RH  097%=      5-min Rain = 0
KJU1 090942Z 23001KT M02/M02 A303 RMK A01 T10161020  RH  097%=      5-min Rain = 0
KJU1 090943Z 23000KT M02/M02 A303 RMK A01 T10161021  RH  097%=      5-min Rain = 0
KJU1 090944Z 23001KT M02/M02 A303 RMK A01 T10161021  RH  097%=      5-min Rain = 0
KJU1 090945Z 23001KT M02/M02 A303 RMK A01 T10161021  RH  097%=      5-min Rain = 0
KJU1 090946Z 21001KT M02/M02 A303 RMK A01 T10171021  RH  097%=      5-min Rain = 0
KJU1 090947Z 21000KT M02/M02 A303 RMK A01 T10171021  RH  097%=      5-min Rain = 0
KJU1 090948Z 00000KT M02/M02 A303 RMK A01 T10171022  RH  097%=      5-min Rain = 0
KJU1 090949Z 00000KT M02/M02 A303 RMK A01 T10171022  RH  097%=      5-min Rain = 0
KJU1 090950Z 00000KT M02/M02 A3029 RMK A01 T10171022  RH  097%=      5-min Rain = 0
KJU1 090951Z 00000KT M02/M02 A3029 RMK A01 T10181022  RH  097%=      5-min Rain = 0
KJU1 090952Z 00000KT M02/M02 A3029 RMK A01 T10181022  RH  097%=      5-min Rain = 0
KJU1 090953Z 00000KT M02/M02 A3029 RMK A01 T10181022  RH  097%=      5-min Rain = 0
KJU1 090954Z 20000KT M02/M02 A3029 RMK A01 T10181022  RH  097%=      5-min Rain = 0
KJU1 090955Z 19001KT M02/M02 A3029 RMK A01 T10191023  RH  097%=      5-min Rain = 0
KJU1 090956Z 00000KT M02/M02 A303 RMK A01 T10191023  RH  097%=      5-min Rain = 0
KJU1 090957Z 19000KT M02/M02 A3029 RMK A01 T10181022  RH  097%=      5-min Rain = 0
KJU1 090958Z 19001KT M02/M02 A3029 RMK A01 T10161019  RH  098%=      5-min Rain = 0
KJU1 090959Z 19001KT M01/M02 A3029 RMK A01 T10141017  RH  098%=      5-min Rain = 0
KJU1 091000Z 19001KT M01/M02 A3029 RMK A01 T10131016  RH  098%=      5-min Rain = 0
KJU1 091001Z 19001KT M01/M02 A303 RMK A01 T10141017  RH  098%=      5-min Rain = 0
KJU1 091002Z 19001KT M02/M02 A303 RMK A01 T10151018  RH  098%=      5-min Rain = 0
KJU1 091003Z 19001KT M02/M02 A303 RMK A01 T10151019  RH  098%=      5-min Rain = 0
KJU1 091004Z 19001KT M02/M02 A303 RMK A01 T10151019  RH  098%=      5-min Rain = 0
KJU1 091005Z 19001KT M02/M02 A3029 RMK A01 T10151019  RH  098%=      5-min Rain = 0
KJU1 091006Z 19001KT M01/M02 A3029 RMK A01 T10141017  RH  098%=      5-min Rain = 0
KJU1 091007Z 19001KT M01/M02 A3029 RMK A01 T10121015  RH  098%=      5-min Rain = 0
KJU1 091008Z 19001KT M01/M02 A3029 RMK A01 T10131016  RH  098%=      5-min Rain = 0
KJU1 091009Z 19001KT M02/M02 A3029 RMK A01 T10151018  RH  098%=      5-min Rain = 0
KJU1 091010Z 19001KT M02/M02 A3029 RMK A01 T10171020  RH  097%=      5-min Rain = 0
KJU1 091011Z 19001KT M02/M02 A3029 RMK A01 T10181021  RH  097%=      5-min Rain = 0
KJU1 091012Z 20001KT M02/M02 A3029 RMK A01 T10181021  RH  098%=      5-min Rain = 0
KJU1 091013Z 20001KT M02/M02 A3029 RMK A01 T10181021  RH  098%=      5-min Rain = 0
KJU1 091014Z 21001KT M02/M02 A3029 RMK A01 T10171020  RH  098%=      5-min Rain = 0
KJU1 091015Z 21001KT M02/M02 A3029 RMK A01 T10171020  RH  098%=      5-min Rain = 0
KJU1 091016Z 22001KT M02/M02 A303 RMK A01 T10171020  RH  098%=      5-min Rain = 0
KJU1 091017Z 22001KT M02/M02 A303 RMK A01 T10181021  RH  098%=      5-min Rain = 0
KJU1 091018Z 22000KT M02/M02 A303 RMK A01 T10181021  RH  098%=      5-min Rain = 0
KJU1 091019Z 00000KT M02/M02 A3029 RMK A01 T10181021  RH  098%=      5-min Rain = 0
KJU1 091020Z 22000KT M02/M02 A3029 RMK A01 T10181021  RH  098%=      5-min Rain = 0
KJU1 091021Z 22001KT M02/M02 A303 RMK A01 T10181021  RH  098%=      5-min Rain = 0
KJU1 091022Z 00000KT M02/M02 A303 RMK A01 T10181021  RH  098%=      5-min Rain = 0
KJU1 091023Z 00000KT M02/M02 A303 RMK A01 T10191022  RH  098%=      5-min Rain = 0
KJU1 091024Z 00000KT M02/M02 A303 RMK A01 T10191023  RH  098%=      5-min Rain = 0
KJU1 091025Z 00000KT M02/M02 A303 RMK A01 T10201023  RH  098%=      5-min Rain = 0
KJU1 091026Z 00000KT M02/M02 A303 RMK A01 T10201023  RH  098%=      5-min Rain = 0
KJU1 091027Z 00000KT M02/M02 A303 RMK A01 T10191022  RH  098%=      5-min Rain = 0
KJU1 091028Z 00000KT M02/M02 A303 RMK A01 T10191022  RH  098%=      5-min Rain = 0
KJU1 091029Z 00000KT M02/M02 A303 RMK A01 T10191022  RH  098%=      5-min Rain = 0
KJU1 091030Z 00000KT M02/M02 A303 RMK A01 T10191022  RH  098%=      5-min Rain = 0
KJU1 091031Z 00000KT M02/M02 A303 RMK A01 T10191021  RH  098%=      5-min Rain = 0
KJU1 091032Z 23001KT M02/M02 A303 RMK A01 T10181020  RH  098%=      5-min Rain = 0
KJU1 091033Z 23001KT M02/M02 A303 RMK A01 T10171020  RH  098%=      5-min Rain = 0
KJU1 091034Z 23000KT M02/M02 A303 RMK A01 T10171020  RH  098%=      5-min Rain = 0
KJU1 091035Z 23000KT M02/M02 A303 RMK A01 T10181021  RH  098%=      5-min Rain = 0
KJU1 091036Z 23000KT M02/M02 A303 RMK A01 T10191022  RH  098%=      5-min Rain = 0
KJU1 091037Z 23000KT M02/M02 A303 RMK A01 T10191022  RH  098%=      5-min Rain = 0
KJU1 091038Z 00000KT M02/M02 A303 RMK A01 T10191021  RH  098%=      5-min Rain = 0
KJU1 091039Z 00000KT M02/M02 A303 RMK A01 T10191021  RH  098%=      5-min Rain = 0
KJU1 091040Z 00000KT M02/M02 A303 RMK A01 T10191022  RH  098%=      5-min Rain = 0
KJU1 091041Z 00000KT M02/M02 A303 RMK A01 T10191022  RH  098%=      5-min Rain = 0
KJU1 091042Z 00000KT M02/M02 A303 RMK A01 T10201023  RH  098%=      5-min Rain = 0
KJU1 091043Z 00000KT M02/M02 A303 RMK A01 T10211024  RH  098%=      5-min Rain = 0
KJU1 091044Z 00000KT M02/M03 A303 RMK A01 T10221025  RH  098%=      5-min Rain = 0
KJU1 091045Z 00000KT M02/M02 A303 RMK A01 T10211024  RH  098%=      5-min Rain = 0
KJU1 091046Z 00000KT M02/M02 A303 RMK A01 T10211024  RH  098%=      5-min Rain = 0
KJU1 091047Z 00000KT M02/M02 A303 RMK A01 T10221024  RH  098%=      5-min Rain = 0
KJU1 091048Z 00000KT M02/M02 A303 RMK A01 T10221024  RH  098%=      5-min Rain = 0
KJU1 091049Z 00000KT M02/M02 A303 RMK A01 T10221024  RH  098%=      5-min Rain = 0
KJU1 091050Z 00000KT M02/M02 A303 RMK A01 T10211024  RH  098%=      5-min Rain = 0
KJU1 091051Z 17001KT M02/M02 A303 RMK A01 T10211024  RH  098%=      5-min Rain = 0
KJU1 091052Z 17001KT M02/M02 A303 RMK A01 T10211024  RH  098%=      5-min Rain = 0
KJU1 091053Z 17001KT M02/M02 A303 RMK A01 T10211024  RH  098%=      5-min Rain = 0
KJU1 091054Z 17001KT M02/M02 A303 RMK A01 T10221024  RH  098%=      5-min Rain = 0
KJU1 091055Z 17001KT M02/M03 A303 RMK A01 T10221025  RH  098%=      5-min Rain = 0
KJU1 091056Z 17001KT M02/M03 A303 RMK A01 T10231026  RH  098%=      5-min Rain = 0
KJU1 091057Z 17002KT M02/M03 A303 RMK A01 T10241027  RH  098%=      5-min Rain = 0
KJU1 091058Z 17002KT M03/M03 A303 RMK A01 T10251028  RH  098%=      5-min Rain = 0
KJU1 091059Z 17001KT M03/M03 A303 RMK A01 T10251028  RH  098%=      5-min Rain = 0
KJU1 091100Z 17001KT M03/M03 A3031 RMK A01 T10251028  RH  098%=      5-min Rain = 0
KJU1 091101Z 17001KT M02/M03 A3031 RMK A01 T10241027  RH  098%=      5-min Rain = 0
KJU1 091102Z 17001KT M02/M03 A3031 RMK A01 T10241027  RH  098%=      5-min Rain = 0
KJU1 091103Z 17001KT M02/M03 A3031 RMK A01 T10241027  RH  098%=      5-min Rain = 0
KJU1 091104Z 17001KT M02/M03 A3031 RMK A01 T10231025  RH  098%=      5-min Rain = 0
KJU1 091105Z 17001KT M02/M03 A3031 RMK A01 T10231025  RH  098%=      5-min Rain = 0
KJU1 091106Z 17001KT M02/M03 A3031 RMK A01 T10241026  RH  098%=      5-min Rain = 0
KJU1 091107Z 17001KT M02/M03 A3031 RMK A01 T10241027  RH  098%=      5-min Rain = 0
KJU1 091108Z 17001KT M02/M03 A3031 RMK A01 T10231026  RH  098%=      5-min Rain = 0
KJU1 091109Z 17001KT M02/M03 A3031 RMK A01 T10231025  RH  098%=      5-min Rain = 0
KJU1 091110Z 17001KT M02/M02 A3031 RMK A01 T10221024  RH  098%=      5-min Rain = 0
KJU1 091111Z 17001KT M02/M02 A3031 RMK A01 T10211023  RH  098%=      5-min Rain = 0
KJU1 091112Z 17000KT M02/M02 A3031 RMK A01 T10211023  RH  099%=      5-min Rain = 0
KJU1 091113Z 17000KT M02/M02 A3031 RMK A01 T10201022  RH  099%=      5-min Rain = 0
KJU1 091114Z 00000KT M02/M02 A3031 RMK A01 T10201022  RH  098%=      5-min Rain = 0
KJU1 091115Z 00000KT M02/M02 A3031 RMK A01 T10201022  RH  098%=      5-min Rain = 0
KJU1 091116Z 00000KT M02/M02 A3031 RMK A01 T10201022  RH  099%=      5-min Rain = 0
KJU1 091117Z 00000KT M02/M02 A3031 RMK A01 T10191021  RH  099%=      5-min Rain = 0
KJU1 091118Z 00000KT M02/M02 A3031 RMK A01 T10201022  RH  098%=      5-min Rain = 0
KJU1 091119Z 00000KT M02/M02 A3031 RMK A01 T10201023  RH  098%=      5-min Rain = 0
KJU1 091120Z 00000KT M02/M02 A3031 RMK A01 T10211023  RH  098%=      5-min Rain = 0
KJU1 091121Z 00000KT M02/M02 A3031 RMK A01 T10211023  RH  098%=      5-min Rain = 0
KJU1 091122Z 00000KT M02/M02 A3031 RMK A01 T10221024  RH  098%=      5-min Rain = 0
KJU1 091123Z 00000KT M02/M02 A3031 RMK A01 T10221024  RH  098%=      5-min Rain = 0
KJU1 091124Z 00000KT M02/M02 A3031 RMK A01 T10211024  RH  098%=      5-min Rain = 0
KJU1 091125Z 00000KT M02/M02 A3031 RMK A01 T10221024  RH  098%=      5-min Rain = 0
KJU1 091126Z 00000KT M02/M02 A3031 RMK A01 T10221024  RH  098%=      5-min Rain = 0
KJU1 091127Z 00000KT M02/M02 A3031 RMK A01 T10221024  RH  098%=      5-min Rain = 0
KJU1 091128Z 00000KT M02/M02 A3031 RMK A01 T10221024  RH  098%=      5-min Rain = 0
KJU1 091129Z 00000KT M02/M02 A3031 RMK A01 T10211024  RH  098%=      5-min Rain = 0
KJU1 091130Z 00000KT M02/M02 A3031 RMK A01 T10221024  RH  098%=      5-min Rain = 0
KJU1 091131Z 29000KT M02/M02 A3031 RMK A01 T10221024  RH  098%=      5-min Rain = 0
KJU1 091132Z 29000KT M02/M02 A3031 RMK A01 T10221024  RH  098%=      5-min Rain = 0
KJU1 091133Z 00000KT M02/M02 A3031 RMK A01 T10221024  RH  098%=      5-min Rain = 0
KJU1 091134Z 00000KT M02/M02 A3031 RMK A01 T10211024  RH  098%=      5-min Rain = 0
KJU1 091135Z 00000KT M02/M02 A3031 RMK A01 T10211023  RH  098%=      5-min Rain = 0
KJU1 091136Z 00000KT M02/M02 A3031 RMK A01 T10211023  RH  099%=      5-min Rain = 0
KJU1 091137Z 00000KT M02/M02 A3031 RMK A01 T10211023  RH  099%=      5-min Rain = 0
KJU1 091138Z 24001KT M02/M02 A3031 RMK A01 T10211023  RH  099%=      5-min Rain = 0
KJU1 091139Z 22001KT M02/M02 A3031 RMK A01 T10211023  RH  099%=      5-min Rain = 0
KJU1 091140Z 22001KT M02/M02 A3031 RMK A01 T10211023  RH  099%=      5-min Rain = 0
KJU1 091141Z 20001KT M02/M02 A3031 RMK A01 T10221024  RH  098%=      5-min Rain = 0
KJU1 091142Z 19001KT M02/M02 A3031 RMK A01 T10221024  RH  098%=      5-min Rain = 0
KJU1 091143Z 19001KT M02/M02 A3032 RMK A01 T10221024  RH  098%=      5-min Rain = 0
KJU1 091144Z 19001KT M02/M02 A3032 RMK A01 T10221024  RH  098%=      5-min Rain = 0
KJU1 091145Z 19001KT M02/M03 A3032 RMK A01 T10231025  RH  098%=      5-min Rain = 0
KJU1 091146Z 19000KT M02/M03 A3032 RMK A01 T10241027  RH  098%=      5-min Rain = 0
KJU1 091147Z 17001KT M03/M03 A3032 RMK A01 T10251027  RH  098%=      5-min Rain = 0
KJU1 091148Z 17000KT M03/M03 A3032 RMK A01 T10251027  RH  098%=      5-min Rain = 0
KJU1 091149Z 00000KT M03/M03 A3032 RMK A01 T10251027  RH  098%=      5-min Rain = 0
KJU1 091150Z 00000KT M03/M03 A3032 RMK A01 T10251027  RH  098%=      5-min Rain = 0
KJU1 091151Z 00000KT M03/M03 A3032 RMK A01 T10251027  RH  098%=      5-min Rain = 0
KJU1 091152Z 00000KT M03/M03 A3032 RMK A01 T10251027  RH  098%=      5-min Rain = 0
KJU1 091153Z 00000KT M02/M03 A3032 RMK A01 T10241026  RH  098%=      5-min Rain = 0
KJU1 091154Z 00000KT M02/M03 A3032 RMK A01 T10241026  RH  098%=      5-min Rain = 0
KJU1 091155Z 00000KT M02/M03 A3032 RMK A01 T10231025  RH  099%=      5-min Rain = 0
KJU1 091156Z 00000KT M02/M02 A3032 RMK A01 T10211023  RH  099%=      5-min Rain = 0
KJU1 091157Z 00000KT M02/M02 A3032 RMK A01 T10211023  RH  099%=      5-min Rain = 0
KJU1 091158Z 00000KT M02/M02 A3032 RMK A01 T10221024  RH  099%=      5-min Rain = 0
KJU1 091159Z 00000KT M02/M03 A3032 RMK A01 T10231025  RH  098%=      5-min Rain = 0
KJU1 091200Z 00000KT M02/M03 A3032 RMK A01 T10231025  RH  098%=      5-min Rain = 0
KJU1 091201Z 00000KT M02/M03 A3032 RMK A01 T10231025  RH  098%=      5-min Rain = 0
KJU1 091202Z 00000KT M02/M03 A3032 RMK A01 T10231025  RH  098%=      5-min Rain = 0
KJU1 091203Z 00000KT M02/M03 A3032 RMK A01 T10231025  RH  098%=      5-min Rain = 0
KJU1 091204Z 00000KT M02/M03 A3032 RMK A01 T10231026  RH  098%=      5-min Rain = 0
KJU1 091205Z 00000KT M02/M03 A3033 RMK A01 T10231025  RH  098%=      5-min Rain = 0
KJU1 091206Z 00000KT M02/M03 A3033 RMK A01 T10231025  RH  098%=      5-min Rain = 0
KJU1 091207Z 00000KT M02/M03 A3033 RMK A01 T10231026  RH  098%=      5-min Rain = 0
KJU1 091208Z 00000KT M02/M03 A3033 RMK A01 T10241026  RH  098%=      5-min Rain = 0
KJU1 091209Z 00000KT M02/M03 A3033 RMK A01 T10241027  RH  098%=      5-min Rain = 0
KJU1 091210Z 00000KT M02/M03 A3033 RMK A01 T10231025  RH  099%=      5-min Rain = 0
KJU1 091211Z 00000KT M02/M02 A3033 RMK A01 T10211023  RH  099%=      5-min Rain = 0
KJU1 091212Z 00000KT M02/M02 A3033 RMK A01 T10221024  RH  099%=      5-min Rain = 0
KJU1 091213Z 00000KT M02/M03 A3033 RMK A01 T10231025  RH  098%=      5-min Rain = 0
KJU1 091214Z 00000KT M02/M03 A3033 RMK A01 T10231025  RH  098%=      5-min Rain = 0
KJU1 091215Z 00000KT M02/M03 A3033 RMK A01 T10231025  RH  098%=      5-min Rain = 0
KJU1 091216Z 00000KT M02/M03 A3033 RMK A01 T10241026  RH  098%=      5-min Rain = 0
KJU1 091217Z 00000KT M03/M03 A3033 RMK A01 T10251027  RH  098%=      5-min Rain = 0
KJU1 091218Z 00000KT M03/M03 A3033 RMK A01 T10261029  RH  098%=      5-min Rain = 0
KJU1 091219Z 00000KT M03/M03 A3033 RMK A01 T10271030  RH  098%=      5-min Rain = 0
KJU1 091220Z 00000KT M03/M03 A3033 RMK A01 T10271030  RH  098%=      5-min Rain = 0
KJU1 091221Z 00000KT M03/M03 A3033 RMK A01 T10281030  RH  098%=      5-min Rain = 0
KJU1 091222Z 00000KT M03/M03 A3033 RMK A01 T10281031  RH  098%=      5-min Rain = 0
KJU1 091223Z 00000KT M03/M03 A3033 RMK A01 T10291032  RH  098%=      5-min Rain = 0
KJU1 091224Z 00000KT M03/M03 A3033 RMK A01 T10301032  RH  098%=      5-min Rain = 0
KJU1 091225Z 00000KT M03/M03 A3033 RMK A01 T10301032  RH  098%=      5-min Rain = 0
KJU1 091226Z 07001KT M03/M03 A3033 RMK A01 T10291031  RH  098%=      5-min Rain = 0
KJU1 091227Z 06001KT M03/M03 A3033 RMK A01 T10271029  RH  098%=      5-min Rain = 0
KJU1 091228Z 06001KT M03/M03 A3033 RMK A01 T10251027  RH  099%=      5-min Rain = 0
KJU1 091229Z 06001KT M02/M03 A3033 RMK A01 T10231025  RH  099%=      5-min Rain = 0
KJU1 091230Z 05001KT M02/M02 A3033 RMK A01 T10231024  RH  099%=      5-min Rain = 0
KJU1 091231Z 04001KT M02/M03 A3033 RMK A01 T10231025  RH  099%=      5-min Rain = 0
KJU1 091232Z 04002KT M02/M03 A3033 RMK A01 T10231025  RH  099%=      5-min Rain = 0
KJU1 091233Z 04002KT M02/M03 A3033 RMK A01 T10231025  RH  099%=      5-min Rain = 0
KJU1 091234Z 03002KT M02/M02 A3033 RMK A01 T10221024  RH  099%=      5-min Rain = 0
KJU1 091235Z 03002KT M02/M02 A3033 RMK A01 T10221024  RH  099%=      5-min Rain = 0
KJU1 091236Z 03003KT M02/M02 A3033 RMK A01 T10221024  RH  099%=      5-min Rain = 0
KJU1 091237Z 03003KT M02/M02 A3033 RMK A01 T10221024  RH  099%=      5-min Rain = 0
KJU1 091238Z 03003KT M02/M02 A3033 RMK A01 T10221024  RH  099%=      5-min Rain = 0
KJU1 091239Z 02003KT M02/M02 A3033 RMK A01 T10221024  RH  099%=      5-min Rain = 0
KJU1 091240Z 02003KT M02/M02 A3033 RMK A01 T10221024  RH  099%=      5-min Rain = 0
KJU1 091241Z 01002KT M02/M02 A3033 RMK A01 T10211023  RH  099%=      5-min Rain = 0
KJU1 091242Z 36001KT M02/M02 A3033 RMK A01 T10211023  RH  099%=      5-min Rain = 0
KJU1 091243Z 34001KT M02/M02 A3033 RMK A01 T10211023  RH  099%=      5-min Rain = 0
KJU1 091244Z 35001KT M02/M02 A3033 RMK A01 T10221024  RH  099%=      5-min Rain = 0
KJU1 091245Z 35001KT M02/M02 A3033 RMK A01 T10221024  RH  099%=      5-min Rain = 0
KJU1 091246Z 34002KT M02/M03 A3033 RMK A01 T10221025  RH  099%=      5-min Rain = 0
KJU1 091247Z 34002KT M02/M03 A3033 RMK A01 T10231025  RH  099%=      5-min Rain = 0
KJU1 091248Z 33002KT M02/M02 A3033 RMK A01 T10211023  RH  099%=      5-min Rain = 0
KJU1 091249Z 33002KT M02/M02 A3033 RMK A01 T10191020  RH  099%=      5-min Rain = 0
KJU1 091250Z 33001KT M02/M02 A3033 RMK A01 T10181019  RH  099%=      5-min Rain = 0
KJU1 091251Z 33001KT M02/M02 A3033 RMK A01 T10171019  RH  099%=      5-min Rain = 0
KJU1 091252Z 34001KT M02/M02 A3033 RMK A01 T10171019  RH  099%=      5-min Rain = 0
KJU1 091253Z 34001KT M02/M02 A3033 RMK A01 T10171019  RH  099%=      5-min Rain = 0
KJU1 091254Z 34001KT M02/M02 A3033 RMK A01 T10171018  RH  099%=      5-min Rain = 0
KJU1 091255Z 34001KT M02/M02 A3033 RMK A01 T10171018  RH  099%=      5-min Rain = 0
KJU1 091256Z 34001KT M02/M02 A3033 RMK A01 T10181019  RH  099%=      5-min Rain = 0
KJU1 091257Z 34001KT M02/M02 A3033 RMK A01 T10191021  RH  099%=      5-min Rain = 0
KJU1 091258Z 34000KT M02/M02 A3033 RMK A01 T10201022  RH  099%=      5-min Rain = 0
KJU1 091259Z 34000KT M02/M02 A3033 RMK A01 T10211023  RH  099%=      5-min Rain = 0
KJU1 091300Z 35000KT M02/M02 A3033 RMK A01 T10221024  RH  099%=      5-min Rain = 0
KJU1 091301Z 00000KT M02/M02 A3033 RMK A01 T10221024  RH  099%=      5-min Rain = 0
KJU1 091302Z 00000KT M02/M02 A3033 RMK A01 T10211022  RH  099%=      5-min Rain = 0
KJU1 091303Z 00000KT M02/M02 A3033 RMK A01 T10201022  RH  099%=      5-min Rain = 0
KJU1 091304Z 00000KT M02/M02 A3034 RMK A01 T10191021  RH  099%=      5-min Rain = 0
KJU1 091305Z 04001KT M02/M02 A3034 RMK A01 T10181020  RH  099%=      5-min Rain = 0
KJU1 091306Z 04001KT M02/M02 A3034 RMK A01 T10181019  RH  099%=      5-min Rain = 0
KJU1 091307Z 04002KT M02/M02 A3034 RMK A01 T10171018  RH  099%=      5-min Rain = 0
KJU1 091308Z 03002KT M02/M02 A3034 RMK A01 T10171018  RH  099%=      5-min Rain = 0
KJU1 091309Z 03002KT M02/M02 A3034 RMK A01 T10171019  RH  099%=      5-min Rain = 0
KJU1 091310Z 03002KT M02/M02 A3034 RMK A01 T10171019  RH  099%=      5-min Rain = 0
KJU1 091311Z 03002KT M02/M02 A3034 RMK A01 T10171019  RH  099%=      5-min Rain = 0
KJU1 091312Z 03002KT M02/M02 A3034 RMK A01 T10171019  RH  099%=      5-min Rain = 0
KJU1 091313Z 03002KT M02/M02 A3034 RMK A01 T10181019  RH  099%=      5-min Rain = 0
KJU1 091314Z 03002KT M02/M02 A3034 RMK A01 T10201021  RH  099%=      5-min Rain = 0
KJU1 091315Z 03001KT M02/M02 A3034 RMK A01 T10211023  RH  099%=      5-min Rain = 0
KJU1 091316Z 04001KT M02/M02 A3034 RMK A01 T10221024  RH  099%=      5-min Rain = 0
KJU1 091317Z 04001KT M02/M02 A3034 RMK A01 T10221024  RH  099%=      5-min Rain = 0
KJU1 091318Z 03001KT M02/M03 A3034 RMK A01 T10231025  RH  099%=      5-min Rain = 0
KJU1 091319Z 04001KT M02/M03 A3034 RMK A01 T10231025  RH  099%=      5-min Rain = 0
KJU1 091320Z 03001KT M02/M03 A3034 RMK A01 T10231025  RH  099%=      5-min Rain = 0
KJU1 091321Z 03001KT M02/M03 A3034 RMK A01 T10231025  RH  099%=      5-min Rain = 0
KJU1 091322Z 02001KT M02/M03 A3034 RMK A01 T10231025  RH  099%=      5-min Rain = 0
KJU1 091323Z 02001KT M02/M02 A3034 RMK A01 T10221023  RH  099%=      5-min Rain = 0
KJU1 091324Z 01001KT M02/M02 A3035 RMK A01 T10211022  RH  099%=      5-min Rain = 0
KJU1 091325Z 01001KT M02/M02 A3035 RMK A01 T10211023  RH  099%=      5-min Rain = 0
KJU1 091326Z 00000KT M02/M02 A3035 RMK A01 T10221024  RH  099%=      5-min Rain = 0
KJU1 091327Z 01001KT M02/M03 A3035 RMK A01 T10231025  RH  099%=      5-min Rain = 0
KJU1 091328Z 00001KT M02/M03 A3035 RMK A01 T10231025  RH  099%=      5-min Rain = 0
KJU1 091329Z 00001KT M02/M02 A3035 RMK A01 T10231024  RH  099%=      5-min Rain = 0
KJU1 091330Z 00001KT M02/M02 A3035 RMK A01 T10221023  RH  099%=      5-min Rain = 0
KJU1 091331Z 00000KT M02/M02 A3035 RMK A01 T10211023  RH  099%=      5-min Rain = 0
KJU1 091332Z 01001KT M02/M02 A3035 RMK A01 T10211022  RH  099%=      5-min Rain = 0
KJU1 091333Z 01001KT M02/M02 A3035 RMK A01 T10211023  RH  099%=      5-min Rain = 0
KJU1 091334Z 01001KT M02/M02 A3035 RMK A01 T10231024  RH  099%=      5-min Rain = 0
KJU1 091335Z 01001KT M02/M03 A3035 RMK A01 T10231025  RH  099%=      5-min Rain = 0
KJU1 091336Z 01000KT M03/M03 A3035 RMK A01 T10251027  RH  099%=      5-min Rain = 0
KJU1 091337Z 01000KT M03/M03 A3035 RMK A01 T10251027  RH  099%=      5-min Rain = 0
KJU1 091338Z 01000KT M03/M03 A3035 RMK A01 T10251027  RH  099%=      5-min Rain = 0
KJU1 091339Z 00000KT M03/M03 A3035 RMK A01 T10251027  RH  099%=      5-min Rain = 0
KJU1 091340Z 00000KT M03/M03 A3035 RMK A01 T10261027  RH  099%=      5-min Rain = 0
KJU1 091341Z 00000KT M03/M03 A3035 RMK A01 T10251027  RH  099%=      5-min Rain = 0
KJU1 091342Z 00000KT M03/M03 A3035 RMK A01 T10251027  RH  099%=      5-min Rain = 0
KJU1 091343Z 00000KT M02/M03 A3035 RMK A01 T10241026  RH  099%=      5-min Rain = 0
KJU1 091344Z 00000KT M02/M03 A3035 RMK A01 T10241026  RH  099%=      5-min Rain = 0
KJU1 091345Z 00000KT M02/M03 A3035 RMK A01 T10241026  RH  099%=      5-min Rain = 0
KJU1 091346Z 00000KT M02/M03 A3035 RMK A01 T10241026  RH  099%=      5-min Rain = 0
KJU1 091347Z 00000KT M03/M03 A3035 RMK A01 T10261028  RH  099%=      5-min Rain = 0
KJU1 091348Z 00000KT M03/M03 A3035 RMK A01 T10271029  RH  098%=      5-min Rain = 0
KJU1 091349Z 00000KT M03/M03 A3035 RMK A01 T10271029  RH  098%=      5-min Rain = 0
KJU1 091350Z 00000KT M03/M03 A3035 RMK A01 T10271029  RH  099%=      5-min Rain = 0
KJU1 091351Z 00000KT M03/M03 A3035 RMK A01 T10271029  RH  099%=      5-min Rain = 0
KJU1 091352Z 00000KT M03/M03 A3035 RMK A01 T10271029  RH  099%=      5-min Rain = 0
KJU1 091353Z 00000KT M03/M03 A3035 RMK A01 T10271029  RH  099%=      5-min Rain = 0
KJU1 091354Z 00000KT M03/M03 A3035 RMK A01 T10271029  RH  099%=      5-min Rain = 0
KJU1 091355Z 00000KT M03/M03 A3035 RMK A01 T10271029  RH  099%=      5-min Rain = 0
KJU1 091356Z 00000KT M03/M03 A3035 RMK A01 T10261028  RH  099%=      5-min Rain = 0
KJU1 091357Z 00000KT M03/M03 A3035 RMK A01 T10261028  RH  099%=      5-min Rain = 0
KJU1 091358Z 00000KT M02/M03 A3035 RMK A01 T10241026  RH  099%=      5-min Rain = 0
KJU1 091359Z 00000KT M02/M03 A3036 RMK A01 T10231025  RH  099%=      5-min Rain = 0
KJU1 091400Z 00000KT M02/M02 A3036 RMK A01 T10221024  RH  099%=      5-min Rain = 0
KJU1 091401Z 18001KT M02/M02 A3036 RMK A01 T10211023  RH  099%=      5-min Rain = 0
KJU1 091402Z 17001KT M02/M02 A3036 RMK A01 T10191021  RH  099%=      5-min Rain = 0
KJU1 091403Z 17001KT M02/M02 A3036 RMK A01 T10191021  RH  099%=      5-min Rain = 0
KJU1 091404Z 17001KT M02/M02 A3036 RMK A01 T10181020  RH  099%=      5-min Rain = 0
KJU1 091405Z 16001KT M02/M02 A3036 RMK A01 T10171018  RH  099%=      5-min Rain = 0
KJU1 091406Z 15001KT M02/M02 A3036 RMK A01 T10151016  RH  099%=      5-min Rain = 0
KJU1 091407Z 15001KT M01/M02 A3036 RMK A01 T10141016  RH  099%=      5-min Rain = 0
KJU1 091408Z 15000KT M01/M02 A3036 RMK A01 T10131015  RH  099%=      5-min Rain = 0
KJU1 091409Z 15001KT M01/M02 A3036 RMK A01 T10131015  RH  099%=      5-min Rain = 0
KJU1 091410Z 15000KT M01/M01 A3036 RMK A01 T10121014  RH  099%=      5-min Rain = 0
KJU1 091411Z 15001KT M01/M01 A3036 RMK A01 T10111013  RH  099%=      5-min Rain = 0
KJU1 091412Z 15000KT M01/M01 A3036 RMK A01 T10101011  RH  099%=      5-min Rain = 0
KJU1 091413Z 00000KT M01/M01 A3036 RMK A01 T10081010  RH  099%=      5-min Rain = 0
KJU1 091414Z 00000KT M01/M01 A3036 RMK A01 T10061008  RH  099%=      5-min Rain = 0
KJU1 091415Z 00000KT M00/M01 A3036 RMK A01 T10041006  RH  099%=      5-min Rain = 0
KJU1 091416Z 00000KT M00/M01 A3036 RMK A01 T10031005  RH  099%=      5-min Rain = 0
KJU1 091417Z 00000KT M00/M00 A3036 RMK A01 T10021003  RH  099%=      5-min Rain = 0
KJU1 091418Z 00000KT M00/M00 A3036 RMK A01 T10011002  RH  099%=      5-min Rain = 0
KJU1 091419Z 00000KT M00/M00 A3036 RMK A01 T10011003  RH  098%=      5-min Rain = 0
KJU1 091420Z 00000KT M00/M00 A3036 RMK A01 T10011003  RH  098%=      5-min Rain = 0
KJU1 091421Z 00000KT 00/00 A3037 RMK A01 T00-000-3  RH  098%=      5-min Rain = 0
KJU1 091422Z 00000KT 00/M00 A3037 RMK A01 T00011002  RH  098%=      5-min Rain = 0
KJU1 091423Z 00000KT 00/00 A3037 RMK A01 T00020000  RH  098%=      5-min Rain = 0
KJU1 091424Z 00000KT 00/00 A3037 RMK A01 T00040001  RH  098%=      5-min Rain = 0
KJU1 091425Z 00000KT 01/00 A3037 RMK A01 T00050002  RH  098%=      5-min Rain = 0
KJU1 091426Z 03000KT 01/00 A3037 RMK A01 T00050002  RH  098%=      5-min Rain = 0
KJU1 091427Z 06000KT 01/00 A3037 RMK A01 T00050002  RH  098%=      5-min Rain = 0
KJU1 091428Z 07001KT 01/00 A3037 RMK A01 T00050002  RH  097%=      5-min Rain = 0
KJU1 091429Z 00001KT 01/00 A3037 RMK A01 T00050002  RH  097%=      5-min Rain = 0
KJU1 091430Z 01001KT 01/00 A3037 RMK A01 T00070003  RH  097%=      5-min Rain = 0
KJU1 091431Z 04001KT 01/00 A3037 RMK A01 T00080004  RH  097%=      5-min Rain = 0
KJU1 091432Z 05001KT 01/01 A3037 RMK A01 T00100005  RH  097%=      5-min Rain = 0
KJU1 091433Z 03002KT 01/01 A3037 RMK A01 T00110006  RH  097%=      5-min Rain = 0
KJU1 091434Z 02001KT 01/01 A3037 RMK A01 T00130008  RH  096%=      5-min Rain = 0
KJU1 091435Z 01001KT 02/01 A3037 RMK A01 T00160011  RH  096%=      5-min Rain = 0
KJU1 091436Z 36002KT 02/01 A3037 RMK A01 T00180012  RH  096%=      5-min Rain = 0
KJU1 091437Z 02001KT 02/01 A3037 RMK A01 T00170008  RH  094%=      5-min Rain = 0
KJU1 091438Z 01002KT 02/01 A3037 RMK A01 T00170005  RH  092%=      5-min Rain = 0
KJU1 091439Z 34002KT 02/00 A3037 RMK A01 T00170004  RH  091%=      5-min Rain = 0
KJU1 091440Z 03001KT 02/00 A3037 RMK A01 T00170003  RH  090%=      5-min Rain = 0
KJU1 091441Z 34001KT 02/00 A3037 RMK A01 T00190004  RH  090%=      5-min Rain = 0
KJU1 091442Z 34002KT 02/00 A3037 RMK A01 T00190002  RH  089%=      5-min Rain = 0
KJU1 091443Z 36003KT 02/00 A3037 RMK A01 T00190000  RH  088%=      5-min Rain = 0
KJU1 091444Z 33002KT 02/M00 A3037 RMK A01 T00191001  RH  087%=      5-min Rain = 0
KJU1 091445Z 35002KT 02/00 A3037 RMK A01 T002000-0  RH  086%=      5-min Rain = 0
KJU1 091446Z 35001KT 02/M00 A3037 RMK A01 T00201001  RH  086%=      5-min Rain = 0
KJU1 091447Z 34001KT 02/M00 A3037 RMK A01 T00211002  RH  085%=      5-min Rain = 0
KJU1 091448Z 02002KT 02/M00 A3037 RMK A01 T00221001  RH  085%=      5-min Rain = 0
KJU1 091449Z 35002KT 02/M00 A3037 RMK A01 T00221002  RH  084%=      5-min Rain = 0
KJU1 091450Z 35001KT 02/M00 A3037 RMK A01 T00221003  RH  083%=      5-min Rain = 0
KJU1 091451Z 32000KT 02/M00 A3037 RMK A01 T00231003  RH  083%=      5-min Rain = 0
KJU1 091452Z 33000KT 02/M00 A3037 RMK A01 T00231001  RH  084%=      5-min Rain = 0
KJU1 091453Z 29001KT 03/00 A3037 RMK A01 T00250000  RH  084%=      5-min Rain = 0
KJU1 091454Z 31003KT 03/M00 A3037 RMK A01 T00251001  RH  083%=      5-min Rain = 0
KJU1 091455Z 33003KT 03/M01 A3037 RMK A01 T00251006  RH  080%=      5-min Rain = 0
KJU1 091456Z 33003KT 02/M01 A3037 RMK A01 T00241009  RH  079%=      5-min Rain = 0
KJU1 091457Z 34002KT 03/M01 A3037 RMK A01 T00251008  RH  079%=      5-min Rain = 0
KJU1 091458Z 34002KT 03/M01 A3037 RMK A01 T00251008  RH  079%=      5-min Rain = 0
KJU1 091459Z 35004KT 03/M01 A3037 RMK A01 T00251010  RH  078%=      5-min Rain = 0
KJU1 091500Z 35004KT 03/M01 A3037 RMK A01 T00251012  RH  076%=      5-min Rain = 0
KJU1 091501Z 34002KT 03/M01 A3037 RMK A01 T00261012  RH  076%=      5-min Rain = 0
KJU1 091502Z 35004KT 03/M01 A3037 RMK A01 T00251013  RH  076%=      5-min Rain = 0
KJU1 091503Z 35004KT 03/M01 A3037 RMK A01 T00261012  RH  076%=      5-min Rain = 0
KJU1 091504Z 36003KT 03/M01 A3037 RMK A01 T00261012  RH  076%=      5-min Rain = 0
KJU1 091505Z 32002KT 03/M01 A3037 RMK A01 T00271010  RH  077%=      5-min Rain = 0
KJU1 091506Z 35002KT 03/M01 A3037 RMK A01 T00291007  RH  077%=      5-min Rain = 0
KJU1 091507Z 01002KT 03/M01 A3038 RMK A01 T00301006  RH  077%=      5-min Rain = 0
KJU1 091508Z 00003KT 03/M01 A3038 RMK A01 T00301007  RH  076%=      5-min Rain = 0
KJU1 091509Z 01004KT 03/M01 A3038 RMK A01 T00301010  RH  075%=      5-min Rain = 0
KJU1 091510Z 01003KT 03/M01 A3038 RMK A01 T00301012  RH  074%=      5-min Rain = 0
KJU1 091511Z 35004KT 03/M01 A3038 RMK A01 T00301010  RH  075%=      5-min Rain = 0
KJU1 091512Z 35003KT 03/M01 A3038 RMK A01 T00301012  RH  074%=      5-min Rain = 0
KJU1 091513Z 35002KT 03/M01 A3038 RMK A01 T00311011  RH  074%=      5-min Rain = 0
KJU1 091514Z 33003KT 03/M01 A3038 RMK A01 T00321010  RH  074%=      5-min Rain = 0
KJU1 091515Z 34005KT 03/M01 A3038 RMK A01 T00331012  RH  073%=      5-min Rain = 0
KJU1 091516Z 34004KT 03/M01 A3038 RMK A01 T00331013  RH  072%=      5-min Rain = 0
KJU1 091517Z 33005KT 03/M01 A3038 RMK A01 T00331014  RH  071%=      5-min Rain = 0
KJU1 091518Z 36004KT 03/M02 A3038 RMK A01 T00331016  RH  070%=      5-min Rain = 0
KJU1 091519Z 35005KT 03/M02 A3038 RMK A01 T00341015  RH  070%=      5-min Rain = 0
KJU1 091520Z 35004KT 03/M02 A3038 RMK A01 T00341016  RH  070%=      5-min Rain = 0
KJU1 091521Z 34003KT 04/M02 A3038 RMK A01 T00351015  RH  070%=      5-min Rain = 0
KJU1 091522Z 35003KT 04/M01 A3038 RMK A01 T00361014  RH  070%=      5-min Rain = 0
KJU1 091523Z 33003KT 04/M01 A3038 RMK A01 T00371011  RH  071%=      5-min Rain = 0
KJU1 091524Z 33003KT 04/M01 A3038 RMK A01 T00391009  RH  071%=      5-min Rain = 0
KJU1 091525Z 34005KT 04/M01 A3038 RMK A01 T00391012  RH  069%=      5-min Rain = 0
KJU1 091526Z 35004KT 04/M01 A3038 RMK A01 T00391014  RH  068%=      5-min Rain = 0
KJU1 091527Z 35006KT 04/M02 A3038 RMK A01 T00391015  RH  068%=      5-min Rain = 0
KJU1 091528Z 00006KT 04/M02 A3038 RMK A01 T00391018  RH  066%=      5-min Rain = 0
KJU1 091529Z 36006KT 04/M02 A3039 RMK A01 T00391017  RH  067%=      5-min Rain = 0
KJU1 091530Z 35006KT 04/M02 A3039 RMK A01 T00391017  RH  067%=      5-min Rain = 0
KJU1 091531Z 36006KT 04/M02 A3039 RMK A01 T00401017  RH  066%=      5-min Rain = 0
KJU1 091532Z 35006KT 04/M02 A3039 RMK A01 T00401018  RH  066%=      5-min Rain = 0
KJU1 091533Z 34005KT 04/M02 A3039 RMK A01 T00401020  RH  065%=      5-min Rain = 0
KJU1 091534Z 35006KT 04/M02 A3039 RMK A01 T00401021  RH  065%=      5-min Rain = 0
KJU1 091535Z 36004KT 04/M02 A3039 RMK A01 T00401020  RH  065%=      5-min Rain = 0
KJU1 091536Z 35004KT 04/M02 A3039 RMK A01 T00401018  RH  066%=      5-min Rain = 0
KJU1 091537Z 35004KT 04/M02 A3039 RMK A01 T00411018  RH  066%=      5-min Rain = 0
KJU1 091538Z 33003KT 04/M02 A3039 RMK A01 T00421016  RH  066%=      5-min Rain = 0
KJU1 091539Z 33005KT 04/M02 A3039 RMK A01 T00431017  RH  065%=      5-min Rain = 0
KJU1 091540Z 34005KT 04/M02 A3039 RMK A01 T00431018  RH  064%=      5-min Rain = 0
KJU1 091541Z 32003KT 04/M02 A3039 RMK A01 T00441017  RH  065%=      5-min Rain = 0
KJU1 091542Z 34004KT 04/M02 A3039 RMK A01 T00441017  RH  065%=      5-min Rain = 0
KJU1 091543Z 34004KT 05/M01 A3039 RMK A01 T00451014  RH  066%=      5-min Rain = 0
KJU1 091544Z 36006KT 05/M02 A3039 RMK A01 T00451015  RH  065%=      5-min Rain = 0
KJU1 091545Z 34004KT 05/M02 A3039 RMK A01 T00451017  RH  064%=      5-min Rain = 0
KJU1 091546Z 34005KT 05/M02 A3039 RMK A01 T00461018  RH  063%=      5-min Rain = 0
KJU1 091547Z 34005KT 05/M02 A3039 RMK A01 T00461019  RH  063%=      5-min Rain = 0
KJU1 091548Z 36005KT 05/M02 A3039 RMK A01 T00471019  RH  062%=      5-min Rain = 0
KJU1 091549Z 35005KT 05/M02 A3039 RMK A01 T00471019  RH  062%=      5-min Rain = 0
KJU1 091550Z 32003KT 05/M02 A3039 RMK A01 T00471018  RH  063%=      5-min Rain = 0
KJU1 091551Z 34004KT 05/M02 A3039 RMK A01 T00481016  RH  063%=      5-min Rain = 0
KJU1 091552Z 34003KT 05/M01 A3039 RMK A01 T00491014  RH  064%=      5-min Rain = 0
KJU1 091553Z 32004KT 05/M01 A3039 RMK A01 T00511013  RH  064%=      5-min Rain = 0
KJU1 091554Z 33004KT 05/M02 A3039 RMK A01 T00511015  RH  062%=      5-min Rain = 0
KJU1 091555Z 32005KT 05/M02 A3039 RMK A01 T00511016  RH  062%=      5-min Rain = 0
KJU1 091556Z 35004KT 05/M02 A3039 RMK A01 T00511017  RH  061%=      5-min Rain = 0
KJU1 091557Z 35005KT 05/M02 A3039 RMK A01 T00511019  RH  061%=      5-min Rain = 0
KJU1 091558Z 02005KT 05/M02 A3039 RMK A01 T00511022  RH  059%=      5-min Rain = 0
KJU1 091559Z 34005KT 05/M02 A3039 RMK A01 T00521021  RH  059%=      5-min Rain = 0
KJU1 091600Z 00006KT 05/M02 A3039 RMK A01 T00531021  RH  059%=      5-min Rain = 0
KJU1 091601Z 36006KT 05/M03 A3039 RMK A01 T00531027  RH  056%=      5-min Rain = 0
KJU1 091602Z 35006KT 05/M03 A3039 RMK A01 T00541029  RH  055%=      5-min Rain = 0
KJU1 091603Z 01007KT 06/M03 A3039 RMK A01 T00561027  RH  055%=      5-min Rain = 0
KJU1 091604Z 35007KT 06/M03 A3039 RMK A01 T00561030  RH  054%=      5-min Rain = 0
KJU1 091605Z 35008KT 06/M04 A3039 RMK A01 T00561035  RH  052%=      5-min Rain = 0
KJU1 091606Z 00010KT 06/M04 A3039 RMK A01 T00571039  RH  050%=      5-min Rain = 0
KJU1 091607Z 35008KT 06/M04 A3039 RMK A01 T00571041  RH  049%=      5-min Rain = 0
KJU1 091608Z 00006KT 06/M04 A3039 RMK A01 T00571041  RH  049%=      5-min Rain = 0
KJU1 091609Z 36005KT 06/M04 A3039 RMK A01 T00581037  RH  050%=      5-min Rain = 0
KJU1 091610Z 34008KT 06/M04 A3039 RMK A01 T00601036  RH  050%=      5-min Rain = 0
KJU1 091611Z 34009KT 06/M04 A3039 RMK A01 T00611041  RH  048%=      5-min Rain = 0
KJU1 091612Z 34007KT 06/M04 A3039 RMK A01 T00591043  RH  048%=      5-min Rain = 0
KJU1 091613Z 35008KT 06/M04 A304 RMK A01 T00591042  RH  048%=      5-min Rain = 0
KJU1 091614Z 36006KT 06/M04 A304 RMK A01 T00601039  RH  049%=      5-min Rain = 0
KJU1 091615Z 36007KT 06/M04 A304 RMK A01 T00611037  RH  049%=      5-min Rain = 0
KJU1 091616Z 00007KT 06/M04 A304 RMK A01 T00611040  RH  048%=      5-min Rain = 0
KJU1 091617Z 35008KT 06/M04 A304 RMK A01 T00621040  RH  048%=      5-min Rain = 0
KJU1 091618Z 35005KT 06/M04 A304 RMK A01 T00621043  RH  047%=      5-min Rain = 0
KJU1 091619Z 34005KT 06/M04 A304 RMK A01 T00631041  RH  047%=      5-min Rain = 0
KJU1 091620Z 33008KT 07/M04 A304 RMK A01 T00651038  RH  048%=      5-min Rain = 0
KJU1 091621Z 34008KT 07/M04 A304 RMK A01 T00651041  RH  047%=      5-min Rain = 0
KJU1 091622Z 34010KT 06/M05 A304 RMK A01 T00641045  RH  046%=      5-min Rain = 0
KJU1 091623Z 35008KT 06/M05 A304 RMK A01 T00631047  RH  045%=      5-min Rain = 0
KJU1 091624Z 36007KT 06/M05 A304 RMK A01 T00621046  RH  046%=      5-min Rain = 0
KJU1 091625Z 33004KT 06/M04 A304 RMK A01 T00641041  RH  047%=      5-min Rain = 0
KJU1 091626Z 35006KT 07/M04 A304 RMK A01 T00651041  RH  046%=      5-min Rain = 0
KJU1 091627Z 35009KT 07/M04 A304 RMK A01 T00661042  RH  046%=      5-min Rain = 0
KJU1 091628Z 35010KT 07/M05 A304 RMK A01 T00651049  RH  044%=      5-min Rain = 0
KJU1 091629Z 36009KT 07/M05 A304 RMK A01 T00651048  RH  044%=      5-min Rain = 0
KJU1 091630Z 00007KT 07/M05 A304 RMK A01 T00661045  RH  045%=      5-min Rain = 0
KJU1 091631Z 00007KT 07/M05 A304 RMK A01 T00661047  RH  044%=      5-min Rain = 0
KJU1 091632Z 36008KT 07/M05 A304 RMK A01 T00661046  RH  045%=      5-min Rain = 0
KJU1 091633Z 36008KT 07/M05 A304 RMK A01 T00661048  RH  044%=      5-min Rain = 0
KJU1 091634Z 35009KT 07/M05 A304 RMK A01 T00661048  RH  044%=      5-min Rain = 0
KJU1 091635Z 35008KT 07/M05 A304 RMK A01 T00651048  RH  044%=      5-min Rain = 0
KJU1 091636Z 34008KT 07/M05 A304 RMK A01 T00651046  RH  045%=      5-min Rain = 0
KJU1 091637Z 00009KT 07/M04 A304 RMK A01 T00661043  RH  045%=      5-min Rain = 0
KJU1 091638Z 35007KT 07/M05 A3039 RMK A01 T00661051  RH  043%=      5-min Rain = 0
KJU1 091639Z 01008KT 07/M05 A3039 RMK A01 T00661052  RH  043%=      5-min Rain = 0
KJU1 091640Z 01009KT 07/M05 A3039 RMK A01 T00671052  RH  042%=      5-min Rain = 0
KJU1 091641Z 00007KT 07/M06 A3039 RMK A01 T00671055  RH  041%=      5-min Rain = 0
KJU1 091642Z 00009KT 07/M06 A3039 RMK A01 T00671056  RH  041%=      5-min Rain = 0
KJU1 091643Z 35009KT 07/M06 A3039 RMK A01 T00671058  RH  040%=      5-min Rain = 0
KJU1 091644Z 02008KT 07/M06 A3039 RMK A01 T00681059  RH  040%=      5-min Rain = 0
KJU1 091645Z 01008KT 07/M06 A304 RMK A01 T00681058  RH  040%=      5-min Rain = 0
KJU1 091646Z 00008G13KT 07/M06 A304 RMK A01 T00681058  RH  040%=      5-min Rain = 0
KJU1 091647Z 00010KT 07/M06 A304 RMK A01 T00691059  RH  040%=      5-min Rain = 0
KJU1 091648Z 02007KT 07/M06 A3039 RMK A01 T00681060  RH  040%=      5-min Rain = 0
KJU1 091649Z 01005KT 07/M06 A3039 RMK A01 T00681056  RH  041%=      5-min Rain = 0
KJU1 091650Z 35006KT 07/M05 A3039 RMK A01 T00701052  RH  041%=      5-min Rain = 0
KJU1 091651Z 35007KT 07/M05 A304 RMK A01 T00711053  RH  041%=      5-min Rain = 0
KJU1 091652Z 34010KT 07/M06 A304 RMK A01 T00721056  RH  040%=      5-min Rain = 0
KJU1 091653Z 35010KT 07/M06 A3039 RMK A01 T00711060  RH  039%=      5-min Rain = 0
KJU1 091654Z 35010KT 07/M06 A3039 RMK A01 T00701060  RH  039%=      5-min Rain = 0
KJU1 091655Z 35009KT 07/M06 A304 RMK A01 T00691061  RH  039%=      5-min Rain = 0
KJU1 091656Z 00008KT 07/M06 A304 RMK A01 T00691061  RH  039%=      5-min Rain = 0
KJU1 091657Z 35009KT 07/M06 A3039 RMK A01 T00691061  RH  039%=      5-min Rain = 0
KJU1 091658Z 33009KT 07/M06 A3039 RMK A01 T00691059  RH  039%=      5-min Rain = 0
KJU1 091659Z 33008KT 07/M06 A3039 RMK A01 T00701057  RH  040%=      5-min Rain = 0
KJU1 091700Z 34008KT 07/M06 A3039 RMK A01 T00701057  RH  040%=      5-min Rain = 0
KJU1 091701Z 35010KT 07/M06 A3039 RMK A01 T00701055  RH  040%=      5-min Rain = 0
KJU1 091702Z 35011KT 07/M06 A3039 RMK A01 T00701058  RH  039%=      5-min Rain = 0
KJU1 091703Z 35009KT 07/M06 A3039 RMK A01 T00691064  RH  038%=      5-min Rain = 0
KJU1 091704Z 35011KT 07/M06 A3039 RMK A01 T00681064  RH  038%=      5-min Rain = 0
KJU1 091705Z 35007KT 07/M06 A3039 RMK A01 T00681062  RH  039%=      5-min Rain = 0
KJU1 091706Z 34010KT 07/M06 A3039 RMK A01 T00701059  RH  039%=      5-min Rain = 0
KJU1 091707Z 35008KT 07/M06 A3039 RMK A01 T00701060  RH  039%=      5-min Rain = 0
KJU1 091708Z 35007KT 07/M06 A3039 RMK A01 T00711055  RH  040%=      5-min Rain = 0
KJU1 091709Z 34009KT 07/M05 A3039 RMK A01 T00721054  RH  040%=      5-min Rain = 0
KJU1 091710Z 35008KT 07/M05 A3039 RMK A01 T00721054  RH  040%=      5-min Rain = 0
KJU1 091711Z 35008KT 07/M05 A3039 RMK A01 T00731051  RH  041%=      5-min Rain = 0
KJU1 091712Z 35007KT 07/M05 A3039 RMK A01 T00741049  RH  041%=      5-min Rain = 0
KJU1 091713Z 35009KT 07/M05 A3039 RMK A01 T00741051  RH  040%=      5-min Rain = 0
KJU1 091714Z 35008KT 07/M05 A3039 RMK A01 T00731054  RH  040%=      5-min Rain = 0
KJU1 091715Z 36007KT 07/M05 A3039 RMK A01 T00731053  RH  040%=      5-min Rain = 0
KJU1 091716Z 32007KT 07/M05 A3039 RMK A01 T00731051  RH  041%=      5-min Rain = 0
KJU1 091717Z 34010KT 07/M05 A3039 RMK A01 T00731053  RH  041%=      5-min Rain = 0
KJU1 091718Z 35009KT 07/M05 A3039 RMK A01 T00721051  RH  041%=      5-min Rain = 0
KJU1 091719Z 01009KT 07/M05 A3039 RMK A01 T00731051  RH  041%=      5-min Rain = 0
KJU1 091720Z 01009KT 07/M05 A3039 RMK A01 T00721050  RH  042%=      5-min Rain = 0
KJU1 091721Z 01007KT 07/M05 A3039 RMK A01 T00721046  RH  043%=      5-min Rain = 0
KJU1 091722Z 01008KT 07/M05 A3039 RMK A01 T00731047  RH  042%=      5-min Rain = 0
KJU1 091723Z 02008KT 07/M05 A3039 RMK A01 T00731047  RH  042%=      5-min Rain = 0
KJU1 091724Z 02011KT 07/M04 A3039 RMK A01 T00741042  RH  043%=      5-min Rain = 0
KJU1 091725Z 01011KT 07/M04 A3039 RMK A01 T00741044  RH  043%=      5-min Rain = 0
KJU1 091726Z 00009KT 07/M05 A3039 RMK A01 T00731046  RH  043%=      5-min Rain = 0
KJU1 091727Z 00007G12KT 07/M05 A3039 RMK A01 T00731047  RH  042%=      5-min Rain = 0
KJU1 091728Z 36009KT 07/M05 A3039 RMK A01 T00731047  RH  042%=      5-min Rain = 0
KJU1 091729Z 02007G12KT 07/M05 A3039 RMK A01 T00731048  RH  042%=      5-min Rain = 0
KJU1 091730Z 02011KT 07/M05 A3039 RMK A01 T00731045  RH  043%=      5-min Rain = 0
KJU1 091731Z 01011KT 07/M04 A3039 RMK A01 T00731043  RH  044%=      5-min Rain = 0
KJU1 091732Z 35010KT 07/M04 A3038 RMK A01 T00731044  RH  043%=      5-min Rain = 0
KJU1 091733Z 00007KT 07/M04 A3038 RMK A01 T00731043  RH  043%=      5-min Rain = 0
KJU1 091734Z 36007KT 08/M04 A3038 RMK A01 T00761036  RH  045%=      5-min Rain = 0
KJU1 091735Z 00009KT 08/M04 A3038 RMK A01 T00781035  RH  045%=      5-min Rain = 0
KJU1 091736Z 01011KT 08/M04 A3038 RMK A01 T00781040  RH  043%=      5-min Rain = 0
KJU1 091737Z 36009KT 08/M04 A3038 RMK A01 T00761040  RH  044%=      5-min Rain = 0
KJU1 091738Z 35010KT 08/M04 A3038 RMK A01 T00761039  RH  044%=      5-min Rain = 0
KJU1 091739Z 01007KT 08/M04 A3038 RMK A01 T00761038  RH  044%=      5-min Rain = 0
KJU1 091740Z 00008G13KT 08/M03 A3038 RMK A01 T00771033  RH  045%=      5-min Rain = 0
KJU1 091741Z 36010KT 08/M04 A3038 RMK A01 T00781038  RH  044%=      5-min Rain = 0
KJU1 091742Z 35008KT 08/M04 A3038 RMK A01 T00771038  RH  044%=      5-min Rain = 0
KJU1 091743Z 35011KT 08/M04 A3038 RMK A01 T00761039  RH  044%=      5-min Rain = 0
KJU1 091744Z 35009KT 08/M04 A3038 RMK A01 T00751040  RH  044%=      5-min Rain = 0
KJU1 091745Z 00010KT 07/M04 A3038 RMK A01 T00741040  RH  044%=      5-min Rain = 0
KJU1 091746Z 01010KT 08/M04 A3038 RMK A01 T00761039  RH  044%=      5-min Rain = 0
KJU1 091747Z 00009KT 08/M04 A3038 RMK A01 T00751041  RH  043%=      5-min Rain = 0
KJU1 091748Z 00006KT 07/M04 A3038 RMK A01 T00741042  RH  043%=      5-min Rain = 0
KJU1 091749Z 00007KT 08/M04 A3038 RMK A01 T00751039  RH  044%=      5-min Rain = 0
KJU1 091750Z 01009KT 08/M03 A3038 RMK A01 T00771034  RH  045%=      5-min Rain = 0
KJU1 091751Z 02008KT 08/M04 A3038 RMK A01 T00771035  RH  045%=      5-min Rain = 0
KJU1 091752Z 00008KT 08/M04 A3038 RMK A01 T00771035  RH  045%=      5-min Rain = 0
KJU1 091753Z 00008KT 08/M04 A3038 RMK A01 T00771035  RH  045%=      5-min Rain = 0
KJU1 091754Z 01009KT 08/M03 A3038 RMK A01 T00781033  RH  045%=      5-min Rain = 0
KJU1 091755Z 02007KT 08/M03 A3038 RMK A01 T00781032  RH  046%=      5-min Rain = 0
KJU1 091756Z 01010KT 08/M03 A3038 RMK A01 T00791030  RH  046%=      5-min Rain = 0
KJU1 091757Z 02011KT 08/M03 A3038 RMK A01 T00781032  RH  046%=      5-min Rain = 0
KJU1 091758Z 02009KT 08/M03 A3037 RMK A01 T00771030  RH  047%=      5-min Rain = 0
KJU1 091759Z 03007KT 08/M03 A3037 RMK A01 T00771028  RH  047%=      5-min Rain = 0
KJU1 091800Z 03008KT 08/M03 A3037 RMK A01 T00791025  RH  048%=      5-min Rain = 0
KJU1 091801Z 01008KT 08/M03 A3037 RMK A01 T00791026  RH  047%=      5-min Rain = 0
KJU1 091802Z 35010KT 08/M03 A3037 RMK A01 T00791029  RH  046%=      5-min Rain = 0
KJU1 091803Z 36009KT 08/M03 A3037 RMK A01 T00791032  RH  045%=      5-min Rain = 0
KJU1 091804Z 00006KT 08/M03 A3037 RMK A01 T00801029  RH  046%=      5-min Rain = 0
KJU1 091805Z 01004KT 08/M03 A3037 RMK A01 T00801026  RH  047%=      5-min Rain = 0
KJU1 091806Z 35007KT 08/M02 A3037 RMK A01 T00821023  RH  047%=      5-min Rain = 0
KJU1 091807Z 33006KT 08/M02 A3037 RMK A01 T00841022  RH  047%=      5-min Rain = 0
KJU1 091808Z 01008KT 08/M02 A3037 RMK A01 T00841024  RH  046%=      5-min Rain = 0
KJU1 091809Z 01007KT 09/M02 A3037 RMK A01 T00851022  RH  047%=      5-min Rain = 0
KJU1 091810Z 34007KT 08/M02 A3037 RMK A01 T00841022  RH  047%=      5-min Rain = 0
KJU1 091811Z 33005KT 09/M02 A3037 RMK A01 T00851024  RH  046%=      5-min Rain = 0
KJU1 091812Z 35006KT 08/M03 A3037 RMK A01 T00841026  RH  046%=      5-min Rain = 0
KJU1 091813Z 35008KT 08/M03 A3037 RMK A01 T00831026  RH  046%=      5-min Rain = 0
KJU1 091814Z 35010KT 08/M03 A3037 RMK A01 T00831025  RH  046%=      5-min Rain = 0
KJU1 091815Z 36007KT 08/M03 A3037 RMK A01 T00831026  RH  046%=      5-min Rain = 0
KJU1 091816Z 01008KT 08/M02 A3037 RMK A01 T00841017  RH  049%=      5-min Rain = 0
KJU1 091817Z 01010KT 09/M02 A3037 RMK A01 T00871015  RH  049%=      5-min Rain = 0
KJU1 091818Z 01008KT 08/M02 A3037 RMK A01 T00841021  RH  047%=      5-min Rain = 0
KJU1 091819Z 03006KT 08/M02 A3037 RMK A01 T00821023  RH  048%=      5-min Rain = 0
KJU1 091820Z 01007KT 08/M02 A3037 RMK A01 T00821020  RH  049%=      5-min Rain = 0
KJU1 091821Z 03008KT 08/M02 A3037 RMK A01 T00821022  RH  048%=      5-min Rain = 0
KJU1 091822Z 03007KT 08/M02 A3037 RMK A01 T00821021  RH  048%=      5-min Rain = 0
KJU1 091823Z 03008KT 08/M02 A3037 RMK A01 T00811022  RH  048%=      5-min Rain = 0
KJU1 091824Z 02009KT 08/M02 A3037 RMK A01 T00821023  RH  048%=      5-min Rain = 0
KJU1 091825Z 01008KT 08/M02 A3036 RMK A01 T00831021  RH  048%=      5-min Rain = 0
KJU1 091826Z 02008KT 08/M02 A3036 RMK A01 T00841018  RH  048%=      5-min Rain = 0
KJU1 091827Z 01008KT 09/M02 A3036 RMK A01 T00861017  RH  048%=      5-min Rain = 0
KJU1 091828Z 35008KT 09/M02 A3036 RMK A01 T00871019  RH  047%=      5-min Rain = 0
KJU1 091829Z 36006KT 09/M02 A3036 RMK A01 T00851024  RH  046%=      5-min Rain = 0
KJU1 091830Z 35006KT 09/M02 A3036 RMK A01 T00851022  RH  047%=      5-min Rain = 0
KJU1 091831Z 35007KT 09/M02 A3036 RMK A01 T00851021  RH  047%=      5-min Rain = 0
KJU1 091832Z 01006KT 09/M01 A3036 RMK A01 T00871014  RH  049%=      5-min Rain = 0
KJU1 091833Z 02006KT 09/M01 A3036 RMK A01 T00891012  RH  049%=      5-min Rain = 0
KJU1 091834Z 03007KT 09/M01 A3036 RMK A01 T00891012  RH  049%=      5-min Rain = 0
KJU1 091835Z 36006KT 09/M01 A3036 RMK A01 T00891014  RH  048%=      5-min Rain = 0
KJU1 091836Z 34006KT 09/M02 A3036 RMK A01 T00891017  RH  047%=      5-min Rain = 0
KJU1 091837Z 33006KT 09/M02 A3036 RMK A01 T00881023  RH  046%=      5-min Rain = 0
KJU1 091838Z 33004KT 09/M02 A3036 RMK A01 T00871022  RH  046%=      5-min Rain = 0
KJU1 091839Z 32005KT 09/M02 A3036 RMK A01 T00871021  RH  046%=      5-min Rain = 0
KJU1 091840Z 32004KT 09/M02 A3036 RMK A01 T00881021  RH  046%=      5-min Rain = 0
KJU1 091841Z 01004KT 09/M02 A3035 RMK A01 T00881019  RH  047%=      5-min Rain = 0
KJU1 091842Z 03008KT 09/M02 A3035 RMK A01 T00891019  RH  047%=      5-min Rain = 0
KJU1 091843Z 36009KT 09/M01 A3035 RMK A01 T00901013  RH  049%=      5-min Rain = 0
KJU1 091844Z 36009KT 09/M01 A3035 RMK A01 T00911014  RH  048%=      5-min Rain = 0
KJU1 091845Z 00008KT 09/M02 A3035 RMK A01 T00891018  RH  047%=      5-min Rain = 0
KJU1 091846Z 35007KT 09/M02 A3035 RMK A01 T00881020  RH  047%=      5-min Rain = 0
KJU1 091847Z 02006KT 09/M02 A3035 RMK A01 T00871019  RH  047%=      5-min Rain = 0
KJU1 091848Z 02004KT 09/M02 A3035 RMK A01 T00871017  RH  048%=      5-min Rain = 0
KJU1 091849Z 00004KT 09/M01 A3035 RMK A01 T00871014  RH  049%=      5-min Rain = 0
KJU1 091850Z 01007KT 09/M01 A3035 RMK A01 T00901013  RH  049%=      5-min Rain = 0
KJU1 091851Z 34007KT 09/M02 A3035 RMK A01 T00911016  RH  047%=      5-min Rain = 0
KJU1 091852Z 34007KT 09/M02 A3035 RMK A01 T00901017  RH  047%=      5-min Rain = 0
KJU1 091853Z 33006KT 09/M01 A3035 RMK A01 T00911014  RH  048%=      5-min Rain = 0
KJU1 091854Z 34008KT 09/M02 A3035 RMK A01 T00911017  RH  046%=      5-min Rain = 0
KJU1 091855Z 33008KT 09/M03 A3035 RMK A01 T00891025  RH  045%=      5-min Rain = 0
KJU1 091856Z 36006KT 09/M02 A3034 RMK A01 T00881024  RH  045%=      5-min Rain = 0
KJU1 091857Z 35006KT 09/M02 A3034 RMK A01 T00881023  RH  046%=      5-min Rain = 0
KJU1 091858Z 34006KT 09/M02 A3034 RMK A01 T00881019  RH  047%=      5-min Rain = 0
KJU1 091859Z 33005KT 09/M02 A3034 RMK A01 T00891020  RH  046%=      5-min Rain = 0
KJU1 091900Z 34005KT 09/M02 A3034 RMK A01 T00901018  RH  047%=      5-min Rain = 0
KJU1 091901Z 35006KT 09/M02 A3034 RMK A01 T00911020  RH  046%=      5-min Rain = 0
KJU1 091902Z 34007KT 09/M02 A3034 RMK A01 T00911019  RH  046%=      5-min Rain = 0
KJU1 091903Z 34009KT 09/M02 A3034 RMK A01 T00911022  RH  045%=      5-min Rain = 0
KJU1 091904Z 35009KT 09/M02 A3034 RMK A01 T00911022  RH  045%=      5-min Rain = 0
KJU1 091905Z 34007KT 09/M03 A3034 RMK A01 T00901025  RH  045%=      5-min Rain = 0
KJU1 091906Z 35006KT 09/M02 A3034 RMK A01 T00891024  RH  045%=      5-min Rain = 0
KJU1 091907Z 01006KT 09/M02 A3034 RMK A01 T00901020  RH  046%=      5-min Rain = 0
KJU1 091908Z 01007KT 09/M02 A3034 RMK A01 T00931017  RH  046%=      5-min Rain = 0
KJU1 091909Z 00006KT 09/M02 A3034 RMK A01 T00921020  RH  045%=      5-min Rain = 0
KJU1 091910Z 34004KT 09/M02 A3034 RMK A01 T00921020  RH  045%=      5-min Rain = 0
KJU1 091911Z 34005KT 09/M02 A3033 RMK A01 T00921018  RH  046%=      5-min Rain = 0
KJU1 091912Z 01008KT 09/M02 A3034 RMK A01 T00941015  RH  046%=      5-min Rain = 0
KJU1 091913Z 02008KT 09/M02 A3033 RMK A01 T00941020  RH  045%=      5-min Rain = 0
KJU1 091914Z 03009KT 09/M02 A3033 RMK A01 T00931022  RH  044%=      5-min Rain = 0
KJU1 091915Z 02008KT 09/M02 A3033 RMK A01 T00931016  RH  047%=      5-min Rain = 0
KJU1 091916Z 01007KT 09/M02 A3033 RMK A01 T00941018  RH  046%=      5-min Rain = 0
KJU1 091917Z 03009KT 09/M02 A3033 RMK A01 T00931017  RH  046%=      5-min Rain = 0
KJU1 091918Z 35008KT 09/M02 A3033 RMK A01 T00931015  RH  047%=      5-min Rain = 0
KJU1 091919Z 36008KT 09/M02 A3033 RMK A01 T00941015  RH  047%=      5-min Rain = 0
KJU1 091920Z 35008KT 10/M02 A3033 RMK A01 T00951015  RH  046%=      5-min Rain = 0
KJU1 091921Z 35008KT 10/M02 A3033 RMK A01 T00951019  RH  045%=      5-min Rain = 0
KJU1 091922Z 00007KT 10/M02 A3033 RMK A01 T00951018  RH  045%=      5-min Rain = 0
KJU1 091923Z 01007KT 09/M02 A3033 RMK A01 T00941019  RH  045%=      5-min Rain = 0
KJU1 091924Z 00008KT 09/M02 A3033 RMK A01 T00941019  RH  045%=      5-min Rain = 0
KJU1 091925Z 01004KT 09/M02 A3033 RMK A01 T00931020  RH  045%=      5-min Rain = 0
KJU1 091926Z 36005KT 09/M01 A3033 RMK A01 T00941014  RH  047%=      5-min Rain = 0
KJU1 091927Z 36007KT 10/M01 A3033 RMK A01 T00961013  RH  047%=      5-min Rain = 0
KJU1 091928Z 01008KT 10/M01 A3033 RMK A01 T00981009  RH  047%=      5-min Rain = 0
KJU1 091929Z 00009KT 10/M01 A3033 RMK A01 T00991012  RH  046%=      5-min Rain = 0
KJU1 091930Z 00007KT 10/M02 A3033 RMK A01 T00971015  RH  046%=      5-min Rain = 0
KJU1 091931Z 02009KT 10/M01 A3033 RMK A01 T00971011  RH  047%=      5-min Rain = 0
KJU1 091932Z 01008KT 10/M01 A3033 RMK A01 T00971011  RH  047%=      5-min Rain = 0
KJU1 091933Z 35006KT 10/M01 A3033 RMK A01 T00961014  RH  046%=      5-min Rain = 0
KJU1 091934Z 35007KT 09/M02 A3033 RMK A01 T00941018  RH  045%=      5-min Rain = 0
KJU1 091935Z 34006KT 09/M02 A3033 RMK A01 T00931021  RH  045%=      5-min Rain = 0
KJU1 091936Z 34004KT 09/M02 A3032 RMK A01 T00921020  RH  045%=      5-min Rain = 0
KJU1 091937Z 36005KT 09/M02 A3032 RMK A01 T00941015  RH  047%=      5-min Rain = 0
KJU1 091938Z 35008KT 10/M01 A3032 RMK A01 T00971011  RH  047%=      5-min Rain = 0
KJU1 091939Z 35008KT 10/M02 A3032 RMK A01 T00981019  RH  044%=      5-min Rain = 0
KJU1 091940Z 34008KT 10/M02 A3032 RMK A01 T00961020  RH  044%=      5-min Rain = 0
KJU1 091941Z 33005KT 10/M02 A3032 RMK A01 T00951022  RH  044%=      5-min Rain = 0
KJU1 091942Z 34004KT 10/M02 A3032 RMK A01 T00951018  RH  045%=      5-min Rain = 0
KJU1 091943Z 35006KT 10/M02 A3032 RMK A01 T00961017  RH  045%=      5-min Rain = 0
KJU1 091944Z 01008KT 10/M01 A3032 RMK A01 T00971013  RH  046%=      5-min Rain = 0
KJU1 091945Z 02008KT 10/M02 A3032 RMK A01 T00971015  RH  046%=      5-min Rain = 0
KJU1 091946Z 02007KT 10/M02 A3032 RMK A01 T00951016  RH  046%=      5-min Rain = 0
KJU1 091947Z 02005KT 09/M02 A3032 RMK A01 T00941017  RH  046%=      5-min Rain = 0
KJU1 091948Z 03008KT 09/M02 A3032 RMK A01 T00931016  RH  046%=      5-min Rain = 0
KJU1 091949Z 01008KT 09/M02 A3032 RMK A01 T00931017  RH  046%=      5-min Rain = 0
KJU1 091950Z 36007KT 09/M02 A3032 RMK A01 T00931016  RH  046%=      5-min Rain = 0
KJU1 091951Z 35006KT 09/M02 A3032 RMK A01 T00941018  RH  045%=      5-min Rain = 0
KJU1 091952Z 35004KT 10/M02 A3032 RMK A01 T00951016  RH  046%=      5-min Rain = 0
KJU1 091953Z 35005KT 10/M02 A3032 RMK A01 T00971015  RH  046%=      5-min Rain = 0
KJU1 091954Z 01009KT 10/M01 A3032 RMK A01 T00981013  RH  046%=      5-min Rain = 0
KJU1 091955Z 00008KT 10/M02 A3032 RMK A01 T00971016  RH  045%=      5-min Rain = 0
KJU1 091956Z 01008KT 10/M02 A3032 RMK A01 T00971016  RH  045%=      5-min Rain = 0
KJU1 091957Z 01008KT 10/M02 A3032 RMK A01 T00961018  RH  045%=      5-min Rain = 0
KJU1 091958Z 33005KT 10/M01 A3032 RMK A01 T00961014  RH  046%=      5-min Rain = 0
KJU1 091959Z 34008KT 10/M01 A3032 RMK A01 T00981011  RH  047%=      5-min Rain = 0
KJU1 092000Z 34005KT 10/M02 A3032 RMK A01 T00991015  RH  045%=      5-min Rain = 0
KJU1 092001Z 32005KT 10/M01 A3032 RMK A01 T01011012  RH  045%=      5-min Rain = 0
KJU1 092002Z 32007KT 10/M01 A3032 RMK A01 T01011013  RH  045%=      5-min Rain = 0
KJU1 092003Z 33005KT 10/M01 A3032 RMK A01 T01011011  RH  046%=      5-min Rain = 0
KJU1 092004Z 34007KT 10/M01 A3032 RMK A01 T01021012  RH  045%=      5-min Rain = 0
KJU1 092005Z 33007KT 10/M01 A3032 RMK A01 T01011014  RH  045%=      5-min Rain = 0
KJU1 092006Z 36010KT 10/M02 A3032 RMK A01 T00991016  RH  045%=      5-min Rain = 0
KJU1 092007Z 35008KT 10/M02 A3032 RMK A01 T00981018  RH  044%=      5-min Rain = 0
KJU1 092008Z 35007KT 10/M02 A3032 RMK A01 T00971016  RH  045%=      5-min Rain = 0
KJU1 092009Z 34006KT 10/M01 A3032 RMK A01 T00981012  RH  046%=      5-min Rain = 0
KJU1 092010Z 33007KT 10/M01 A3032 RMK A01 T00991014  RH  045%=      5-min Rain = 0
KJU1 092011Z 34005KT 10/M02 A3032 RMK A01 T00991015  RH  045%=      5-min Rain = 0
KJU1 092012Z 35006KT 10/M01 A3032 RMK A01 T00991012  RH  046%=      5-min Rain = 0
KJU1 092013Z 00006KT 10/M01 A3032 RMK A01 T01001011  RH  046%=      5-min Rain = 0
KJU1 092014Z 36007KT 10/M01 A3032 RMK A01 T01011009  RH  046%=      5-min Rain = 0
KJU1 092015Z 00009KT 10/M01 A3032 RMK A01 T01011008  RH  046%=      5-min Rain = 0
KJU1 092016Z 00008KT 10/M01 A3032 RMK A01 T01011010  RH  046%=      5-min Rain = 0
KJU1 092017Z 36005KT 10/M01 A3032 RMK A01 T00991011  RH  046%=      5-min Rain = 0
KJU1 092018Z 35005KT 10/M01 A3032 RMK A01 T00981013  RH  046%=      5-min Rain = 0
KJU1 092019Z 35005KT 10/M01 A3032 RMK A01 T00971014  RH  046%=      5-min Rain = 0
KJU1 092020Z 34004KT 10/M01 A3032 RMK A01 T00961014  RH  046%=      5-min Rain = 0
KJU1 092021Z 34004KT 10/M01 A3032 RMK A01 T00961014  RH  046%=      5-min Rain = 0
KJU1 092022Z 31002KT 10/M01 A3032 RMK A01 T00961014  RH  046%=      5-min Rain = 0
KJU1 092023Z 31003KT 10/M01 A3032 RMK A01 T00971010  RH  047%=      5-min Rain = 0
KJU1 092024Z 00005KT 10/M01 A3032 RMK A01 T00991008  RH  047%=      5-min Rain = 0
KJU1 092025Z 00009KT 10/M01 A3032 RMK A01 T01011005  RH  048%=      5-min Rain = 0
KJU1 092026Z 00008KT 10/M01 A3032 RMK A01 T01011008  RH  047%=      5-min Rain = 0
KJU1 092027Z 01008KT 10/M00 A3032 RMK A01 T01021003  RH  048%=      5-min Rain = 0
KJU1 092028Z 01007KT 10/M01 A3032 RMK A01 T01021005  RH  047%=      5-min Rain = 0
KJU1 092029Z 01006KT 10/M01 A3032 RMK A01 T01011005  RH  048%=      5-min Rain = 0
KJU1 092030Z 00005KT 10/M01 A3032 RMK A01 T01011006  RH  047%=      5-min Rain = 0
KJU1 092031Z 36005KT 10/M01 A3032 RMK A01 T01001006  RH  048%=      5-min Rain = 0
KJU1 092032Z 00007KT 10/M01 A3032 RMK A01 T01001006  RH  047%=      5-min Rain = 0
KJU1 092033Z 36007KT 10/M01 A3032 RMK A01 T01001008  RH  047%=      5-min Rain = 0
KJU1 092034Z 00008KT 10/M01 A3032 RMK A01 T01001010  RH  046%=      5-min Rain = 0
KJU1 092035Z 01009KT 10/M01 A3032 RMK A01 T01001009  RH  047%=      5-min Rain = 0
KJU1 092036Z 35008KT 10/M01 A3032 RMK A01 T00991009  RH  047%=      5-min Rain = 0
KJU1 092037Z 34010KT 10/M01 A3032 RMK A01 T00991010  RH  046%=      5-min Rain = 0
KJU1 092038Z 35007KT 10/M01 A3032 RMK A01 T00991009  RH  047%=      5-min Rain = 0
KJU1 092039Z 33007KT 10/M01 A3032 RMK A01 T01001008  RH  047%=      5-min Rain = 0
KJU1 092040Z 33006KT 10/M01 A3032 RMK A01 T01011006  RH  047%=      5-min Rain = 0
KJU1 092041Z 32006KT 10/M01 A3032 RMK A01 T01011009  RH  046%=      5-min Rain = 0
KJU1 092042Z 31008KT 10/M01 A3032 RMK A01 T01011010  RH  046%=      5-min Rain = 0
KJU1 092043Z 33006KT 10/M01 A3032 RMK A01 T01011010  RH  046%=      5-min Rain = 0
KJU1 092044Z 34006KT 10/M01 A3032 RMK A01 T01001009  RH  047%=      5-min Rain = 0
KJU1 092045Z 35008KT 10/M01 A3032 RMK A01 T01011008  RH  047%=      5-min Rain = 0
KJU1 092046Z 36006KT 10/M01 A3032 RMK A01 T01021009  RH  046%=      5-min Rain = 0
KJU1 092047Z 35008KT 10/M01 A3032 RMK A01 T01021007  RH  047%=      5-min Rain = 0
KJU1 092048Z 33007KT 10/M01 A3032 RMK A01 T01031005  RH  047%=      5-min Rain = 0
KJU1 092049Z 35007KT 10/M00 A3032 RMK A01 T01031004  RH  048%=      5-min Rain = 0
KJU1 092050Z 35006KT 10/M00 A3032 RMK A01 T01041004  RH  047%=      5-min Rain = 0
KJU1 092051Z 36005KT 10/M01 A3032 RMK A01 T01031005  RH  047%=      5-min Rain = 0
KJU1 092052Z 35006KT 10/M01 A3032 RMK A01 T01031005  RH  047%=      5-min Rain = 0
KJU1 092053Z 35008KT 10/M00 A3032 RMK A01 T01031004  RH  047%=      5-min Rain = 0
KJU1 092054Z 34007KT 10/M00 A3032 RMK A01 T01041004  RH  047%=      5-min Rain = 0
KJU1 092055Z 36009KT 10/M00 A3032 RMK A01 T01041003  RH  047%=      5-min Rain = 0
KJU1 092056Z 35008KT 10/M01 A3032 RMK A01 T01041005  RH  047%=      5-min Rain = 0
KJU1 092057Z 35009KT 10/M00 A3032 RMK A01 T01041004  RH  047%=      5-min Rain = 0
KJU1 092058Z 35006KT 10/M01 A3032 RMK A01 T01031006  RH  047%=      5-min Rain = 0
KJU1 092059Z 36008KT 10/M00 A3032 RMK A01 T01021004  RH  047%=      5-min Rain = 0
KJU1 092100Z 01008KT 10/M00 A3032 RMK A01 T01031004  RH  047%=      5-min Rain = 0
KJU1 092101Z 02006KT 10/M00 A3032 RMK A01 T01021004  RH  048%=      5-min Rain = 0
KJU1 092102Z 01005KT 10/M00 A3032 RMK A01 T01011003  RH  048%=      5-min Rain = 0
KJU1 092103Z 33004KT 10/00 A3032 RMK A01 T01020003  RH  050%=      5-min Rain = 0
KJU1 092104Z 33005KT 10/M00 A3032 RMK A01 T01041002  RH  048%=      5-min Rain = 0
KJU1 092105Z 00004KT 10/M01 A3032 RMK A01 T01041005  RH  047%=      5-min Rain = 0
KJU1 092106Z 00006KT 11/M00 A3032 RMK A01 T01051001  RH  048%=      5-min Rain = 0
KJU1 092107Z 01006KT 11/M01 A3032 RMK A01 T01051005  RH  046%=      5-min Rain = 0
KJU1 092108Z 01005KT 10/M01 A3032 RMK A01 T01021008  RH  046%=      5-min Rain = 0
KJU1 092109Z 35006KT 10/M01 A3032 RMK A01 T01021005  RH  048%=      5-min Rain = 0
KJU1 092110Z 32006KT 10/M00 A3032 RMK A01 T01031003  RH  048%=      5-min Rain = 0
KJU1 092111Z 34008G14KT 10/M00 A3032 RMK A01 T01041003  RH  048%=      5-min Rain = 0
KJU1 092112Z 01010KT 10/M01 A3032 RMK A01 T01041005  RH  047%=      5-min Rain = 0
KJU1 092113Z 00006KT 10/M01 A3032 RMK A01 T01011006  RH  047%=      5-min Rain = 0
KJU1 092114Z 36006KT 10/M00 A3032 RMK A01 T01011003  RH  048%=      5-min Rain = 0
KJU1 092115Z 35003KT 10/M01 A3031 RMK A01 T01021005  RH  048%=      5-min Rain = 0
KJU1 092116Z 02005KT 10/M00 A3031 RMK A01 T01021001  RH  049%=      5-min Rain = 0
KJU1 092117Z 01007KT 10/M00 A3031 RMK A01 T01021004  RH  048%=      5-min Rain = 0
KJU1 092118Z 34007KT 10/M00 A3031 RMK A01 T01011004  RH  048%=      5-min Rain = 0
KJU1 092119Z 36005KT 10/M00 A3031 RMK A01 T01011004  RH  048%=      5-min Rain = 0
KJU1 092120Z 35010KT 10/M00 A3031 RMK A01 T01021003  RH  048%=      5-min Rain = 0
KJU1 092121Z 01008KT 10/M00 A3031 RMK A01 T01031004  RH  047%=      5-min Rain = 0
KJU1 092122Z 01008KT 10/M01 A3031 RMK A01 T01031006  RH  047%=      5-min Rain = 0
KJU1 092123Z 00007KT 10/M01 A3031 RMK A01 T01031006  RH  047%=      5-min Rain = 0
KJU1 092124Z 34008KT 10/M01 A3031 RMK A01 T01031006  RH  047%=      5-min Rain = 0
KJU1 092125Z 34010KT 10/M01 A3031 RMK A01 T01031007  RH  046%=      5-min Rain = 0
KJU1 092126Z 35008KT 10/M01 A3031 RMK A01 T01021009  RH  046%=      5-min Rain = 0
KJU1 092127Z 33009KT 10/M01 A3031 RMK A01 T01021010  RH  046%=      5-min Rain = 0
KJU1 092128Z 33005KT 10/M01 A3031 RMK A01 T01011010  RH  046%=      5-min Rain = 0
KJU1 092129Z 33004KT 10/M01 A3031 RMK A01 T01021006  RH  047%=      5-min Rain = 0
KJU1 092130Z 32004KT 10/M01 A3031 RMK A01 T01021007  RH  047%=      5-min Rain = 0
KJU1 092131Z 33008KT 10/M01 A3031 RMK A01 T01031007  RH  046%=      5-min Rain = 0
KJU1 092132Z 35010KT 10/M01 A3031 RMK A01 T01031009  RH  046%=      5-min Rain = 0
KJU1 092133Z 33008KT 10/M01 A3031 RMK A01 T01021007  RH  047%=      5-min Rain = 0
KJU1 092134Z 34009KT 10/M01 A3031 RMK A01 T01021009  RH  046%=      5-min Rain = 0
KJU1 092135Z 34009KT 10/M01 A3031 RMK A01 T01011007  RH  047%=      5-min Rain = 0
KJU1 092136Z 34007KT 10/M01 A3031 RMK A01 T01011007  RH  047%=      5-min Rain = 0
KJU1 092137Z 34009KT 10/M01 A3031 RMK A01 T01011007  RH  047%=      5-min Rain = 0
KJU1 092138Z 34008KT 10/M01 A3031 RMK A01 T01011008  RH  047%=      5-min Rain = 0
KJU1 092139Z 34008KT 10/M01 A3031 RMK A01 T01011008  RH  047%=      5-min Rain = 0
KJU1 092140Z 34009KT 10/M01 A3031 RMK A01 T01011008  RH  047%=      5-min Rain = 0
KJU1 092141Z 32007KT 10/M01 A3031 RMK A01 T01011008  RH  047%=      5-min Rain = 0
KJU1 092142Z 33008KT 10/M01 A3031 RMK A01 T01011006  RH  047%=      5-min Rain = 0
KJU1 092143Z 33007KT 10/M01 A3031 RMK A01 T01011006  RH  047%=      5-min Rain = 0
KJU1 092144Z 00007KT 10/M01 A3032 RMK A01 T01011005  RH  048%=      5-min Rain = 0
KJU1 092145Z 36006KT 10/M01 A3032 RMK A01 T01021007  RH  047%=      5-min Rain = 0
KJU1 092146Z 35008KT 10/M01 A3032 RMK A01 T01011008  RH  047%=      5-min Rain = 0
KJU1 092147Z 35007KT 10/M01 A3032 RMK A01 T01001010  RH  046%=      5-min Rain = 0
KJU1 092148Z 34006KT 10/M01 A3031 RMK A01 T00991011  RH  046%=      5-min Rain = 0
KJU1 092149Z 33005KT 10/M01 A3031 RMK A01 T00991010  RH  047%=      5-min Rain = 0
KJU1 092150Z 33007KT 10/M01 A3031 RMK A01 T01001007  RH  047%=      5-min Rain = 0
KJU1 092151Z 35005KT 10/M01 A3031 RMK A01 T01001007  RH  047%=      5-min Rain = 0
KJU1 092152Z 02006KT 10/M00 A3031 RMK A01 T01021002  RH  049%=      5-min Rain = 0
KJU1 092153Z 36005KT 10/M00 A3031 RMK A01 T01021002  RH  049%=      5-min Rain = 0
KJU1 092154Z 34005KT 10/00 A3031 RMK A01 T01020001  RH  049%=      5-min Rain = 0
KJU1 092155Z 35004KT 10/M00 A3031 RMK A01 T01031001  RH  049%=      5-min Rain = 0
KJU1 092156Z 36004KT 10/00 A3031 RMK A01 T01040001  RH  049%=      5-min Rain = 0
KJU1 092157Z 02007KT 10/00 A3031 RMK A01 T01040001  RH  049%=      5-min Rain = 0
KJU1 092158Z 02006KT 10/00 A3031 RMK A01 T010300-0  RH  049%=      5-min Rain = 0
KJU1 092159Z 03007KT 10/00 A3031 RMK A01 T010100-0  RH  049%=      5-min Rain = 0
KJU1 092200Z 02009KT 10/00 A3031 RMK A01 T01010000  RH  050%=      5-min Rain = 0
KJU1 092201Z 36008KT 10/00 A3031 RMK A01 T01020003  RH  050%=      5-min Rain = 0
KJU1 092202Z 36008KT 10/M00 A3031 RMK A01 T01021002  RH  049%=      5-min Rain = 0
KJU1 092203Z 36007KT 10/M00 A3031 RMK A01 T01011004  RH  048%=      5-min Rain = 0
KJU1 092204Z 36007KT 10/M01 A3031 RMK A01 T01011005  RH  048%=      5-min Rain = 0
KJU1 092205Z 00006KT 10/M00 A3032 RMK A01 T01001004  RH  048%=      5-min Rain = 0
KJU1 092206Z 35005KT 10/M01 A3031 RMK A01 T01001005  RH  048%=      5-min Rain = 0
KJU1 092207Z 35006KT 10/M01 A3031 RMK A01 T01001005  RH  048%=      5-min Rain = 0
KJU1 092208Z 36007KT 10/M01 A3031 RMK A01 T01001005  RH  048%=      5-min Rain = 0
KJU1 092209Z 35007KT 10/M01 A3031 RMK A01 T00991006  RH  048%=      5-min Rain = 0
KJU1 092210Z 00005KT 10/M01 A3031 RMK A01 T00991006  RH  048%=      5-min Rain = 0
KJU1 092211Z 01006KT 10/M01 A3031 RMK A01 T00991006  RH  048%=      5-min Rain = 0
KJU1 092212Z 34005KT 10/M01 A3031 RMK A01 T00991007  RH  048%=      5-min Rain = 0
KJU1 092213Z 35006KT 10/M01 A3031 RMK A01 T00991005  RH  048%=      5-min Rain = 0
KJU1 092214Z 35007KT 10/M00 A3031 RMK A01 T00991002  RH  049%=      5-min Rain = 0
KJU1 092215Z 35007KT 10/M00 A3032 RMK A01 T01001001  RH  049%=      5-min Rain = 0
KJU1 092216Z 34006KT 10/M00 A3032 RMK A01 T01011003  RH  048%=      5-min Rain = 0
KJU1 092217Z 35006KT 10/M00 A3032 RMK A01 T01001002  RH  049%=      5-min Rain = 0
KJU1 092218Z 00006KT 10/M00 A3032 RMK A01 T01001003  RH  049%=      5-min Rain = 0
KJU1 092219Z 02006KT 10/M00 A3032 RMK A01 T01001002  RH  049%=      5-min Rain = 0
KJU1 092220Z 01006KT 10/M00 A3032 RMK A01 T01001002  RH  049%=      5-min Rain = 0
KJU1 092221Z 02006KT 10/M00 A3032 RMK A01 T01001003  RH  049%=      5-min Rain = 0
KJU1 092222Z 02005KT 10/M00 A3032 RMK A01 T01001002  RH  049%=      5-min Rain = 0
KJU1 092223Z 01005KT 10/M00 A3032 RMK A01 T01001002  RH  049%=      5-min Rain = 0
KJU1 092224Z 01007KT 10/M00 A3032 RMK A01 T01001002  RH  049%=      5-min Rain = 0
KJU1 092225Z 01007KT 10/M00 A3032 RMK A01 T00991003  RH  049%=      5-min Rain = 0
KJU1 092226Z 02007KT 10/M01 A3032 RMK A01 T00991006  RH  048%=      5-min Rain = 0
KJU1 092227Z 02007KT 10/M01 A3032 RMK A01 T00981006  RH  049%=      5-min Rain = 0
KJU1 092228Z 02008KT 10/M01 A3032 RMK A01 T00971005  RH  049%=      5-min Rain = 0
KJU1 092229Z 02009KT 10/M01 A3032 RMK A01 T00971006  RH  049%=      5-min Rain = 0
KJU1 092230Z 02007KT 10/M01 A3032 RMK A01 T00971005  RH  049%=      5-min Rain = 0
KJU1 092231Z 36008KT 10/M00 A3032 RMK A01 T00971003  RH  050%=      5-min Rain = 0
KJU1 092232Z 36007KT 10/M01 A3032 RMK A01 T00971005  RH  049%=      5-min Rain = 0
KJU1 092233Z 00007KT 10/M01 A3032 RMK A01 T00971006  RH  048%=      5-min Rain = 0
KJU1 092234Z 01008KT 10/M01 A3032 RMK A01 T00971006  RH  048%=      5-min Rain = 0
KJU1 092235Z 01007KT 10/M01 A3032 RMK A01 T00971008  RH  048%=      5-min Rain = 0
KJU1 092236Z 00006KT 10/M01 A3032 RMK A01 T00971008  RH  048%=      5-min Rain = 0
KJU1 092237Z 01006KT 10/M01 A3032 RMK A01 T00961007  RH  049%=      5-min Rain = 0
KJU1 092238Z 00008KT 10/M01 A3032 RMK A01 T00961007  RH  049%=      5-min Rain = 0
KJU1 092239Z 36005KT 10/M01 A3032 RMK A01 T00961007  RH  048%=      5-min Rain = 0
KJU1 092240Z 01005KT 10/M01 A3032 RMK A01 T00971006  RH  049%=      5-min Rain = 0
KJU1 092241Z 01004KT 10/M00 A3032 RMK A01 T00971003  RH  050%=      5-min Rain = 0
KJU1 092242Z 01004KT 10/M00 A3032 RMK A01 T00971001  RH  050%=      5-min Rain = 0
KJU1 092243Z 01004KT 10/M00 A3032 RMK A01 T00971001  RH  050%=      5-min Rain = 0
KJU1 092244Z 35005KT 10/00 A3032 RMK A01 T00970001  RH  051%=      5-min Rain = 0
KJU1 092245Z 01007KT 10/M00 A3032 RMK A01 T00971003  RH  050%=      5-min Rain = 0
KJU1 092246Z 00004KT 10/M00 A3032 RMK A01 T00971004  RH  050%=      5-min Rain = 0
KJU1 092247Z 01006KT 10/M00 A3032 RMK A01 T00961003  RH  050%=      5-min Rain = 0
KJU1 092248Z 02008KT 10/M00 A3032 RMK A01 T00961004  RH  050%=      5-min Rain = 0
KJU1 092249Z 01007KT 10/M00 A3032 RMK A01 T00951004  RH  050%=      5-min Rain = 0
KJU1 092250Z 01007KT 09/M00 A3032 RMK A01 T00941004  RH  050%=      5-min Rain = 0
KJU1 092251Z 01007KT 09/M00 A3032 RMK A01 T00941004  RH  050%=      5-min Rain = 0
KJU1 092252Z 01007KT 09/M01 A3032 RMK A01 T00941005  RH  050%=      5-min Rain = 0
KJU1 092253Z 01008KT 09/M01 A3032 RMK A01 T00941005  RH  050%=      5-min Rain = 0
KJU1 092254Z 01007KT 09/M01 A3032 RMK A01 T00931006  RH  050%=      5-min Rain = 0
KJU1 092255Z 00008KT 09/M01 A3032 RMK A01 T00931006  RH  050%=      5-min Rain = 0
KJU1 092256Z 36008KT 09/M01 A3032 RMK A01 T00931006  RH  050%=      5-min Rain = 0
KJU1 092257Z 36008KT 09/M01 A3032 RMK A01 T00931007  RH  050%=      5-min Rain = 0
KJU1 092258Z 35007KT 09/M01 A3032 RMK A01 T00931006  RH  050%=      5-min Rain = 0
KJU1 092259Z 36008KT 09/M01 A3032 RMK A01 T00931006  RH  050%=      5-min Rain = 0
KJU1 092300Z 35008KT 09/M01 A3032 RMK A01 T00931006  RH  050%=      5-min Rain = 0
KJU1 092301Z 35006KT 09/M01 A3032 RMK A01 T00931007  RH  050%=      5-min Rain = 0
KJU1 092302Z 35006KT 09/M00 A3032 RMK A01 T00921004  RH  051%=      5-min Rain = 0
KJU1 092303Z 35005KT 09/M00 A3032 RMK A01 T00921004  RH  051%=      5-min Rain = 0
KJU1 092304Z 00006KT 09/M00 A3032 RMK A01 T00911004  RH  051%=      5-min Rain = 0
KJU1 092305Z 36007KT 09/M01 A3032 RMK A01 T00911006  RH  051%=      5-min Rain = 0
KJU1 092306Z 00006KT 09/M01 A3032 RMK A01 T00911005  RH  051%=      5-min Rain = 0
KJU1 092307Z 35006KT 09/M01 A3032 RMK A01 T00901005  RH  051%=      5-min Rain = 0
KJU1 092308Z 35005KT 09/M00 A3032 RMK A01 T00901004  RH  052%=      5-min Rain = 0
KJU1 092309Z 35006KT 09/M00 A3032 RMK A01 T00901004  RH  052%=      5-min Rain = 0
KJU1 092310Z 00006KT 09/M00 A3032 RMK A01 T00901004  RH  052%=      5-min Rain = 0
KJU1 092311Z 01005KT 09/M00 A3032 RMK A01 T00901003  RH  052%=      5-min Rain = 0
KJU1 092312Z 02007KT 09/M00 A3032 RMK A01 T00891001  RH  053%=      5-min Rain = 0
KJU1 092313Z 01006KT 09/M00 A3032 RMK A01 T00881002  RH  053%=      5-min Rain = 0
KJU1 092314Z 00004KT 09/M00 A3032 RMK A01 T00881001  RH  054%=      5-min Rain = 0
KJU1 092315Z 00005KT 09/M00 A3032 RMK A01 T00881001  RH  054%=      5-min Rain = 0
KJU1 092316Z 01005KT 09/M00 A3032 RMK A01 T00881001  RH  054%=      5-min Rain = 0
KJU1 092317Z 01005KT 09/M00 A3032 RMK A01 T00871001  RH  054%=      5-min Rain = 0
KJU1 092318Z 01005KT 09/M00 A3032 RMK A01 T00871002  RH  054%=      5-min Rain = 0
KJU1 092319Z 00004KT 09/M00 A3032 RMK A01 T00861001  RH  054%=      5-min Rain = 0
KJU1 092320Z 36005KT 09/M00 A3032 RMK A01 T00861002  RH  054%=      5-min Rain = 0
KJU1 092321Z 36007KT 09/M00 A3032 RMK A01 T00861002  RH  054%=      5-min Rain = 0
KJU1 092322Z 01005KT 09/M00 A3032 RMK A01 T00861002  RH  054%=      5-min Rain = 0
KJU1 092323Z 00005KT 09/M00 A3032 RMK A01 T00851002  RH  054%=      5-min Rain = 0
KJU1 092324Z 35003KT 09/M00 A3032 RMK A01 T00851002  RH  054%=      5-min Rain = 0
KJU1 092325Z 00003KT 08/M00 A3032 RMK A01 T00841001  RH  055%=      5-min Rain = 0
KJU1 092326Z 01005KT 08/M00 A3032 RMK A01 T00841001  RH  055%=      5-min Rain = 0
KJU1 092327Z 36004KT 08/M00 A3032 RMK A01 T00841002  RH  055%=      5-min Rain = 0
KJU1 092328Z 02005KT 08/M00 A3032 RMK A01 T00831002  RH  055%=      5-min Rain = 0
KJU1 092329Z 00005KT 08/M00 A3032 RMK A01 T00831001  RH  055%=      5-min Rain = 0
KJU1 092330Z 00005KT 08/M00 A3032 RMK A01 T00831002  RH  055%=      5-min Rain = 0
KJU1 092331Z 01004KT 08/M00 A3032 RMK A01 T00821002  RH  055%=      5-min Rain = 0
KJU1 092332Z 01007KT 08/M00 A3032 RMK A01 T00821002  RH  055%=      5-min Rain = 0
KJU1 092333Z 01006KT 08/M00 A3032 RMK A01 T00821002  RH  055%=      5-min Rain = 0
KJU1 092334Z 01005KT 08/M00 A3033 RMK A01 T00821001  RH  056%=      5-min Rain = 0
KJU1 092335Z 01006KT 08/M00 A3033 RMK A01 T00811001  RH  056%=      5-min Rain = 0
KJU1 092336Z 01006KT 08/M00 A3033 RMK A01 T00811001  RH  056%=      5-min Rain = 0
KJU1 092337Z 01006KT 08/M00 A3033 RMK A01 T00801001  RH  057%=      5-min Rain = 0
KJU1 092338Z 36005KT 08/M00 A3033 RMK A01 T00791001  RH  057%=      5-min Rain = 0
KJU1 092339Z 35005KT 08/M00 A3033 RMK A01 T00791001  RH  057%=      5-min Rain = 0
KJU1 092340Z 35005KT 08/M00 A3033 RMK A01 T00791001  RH  057%=      5-min Rain = 0
KJU1 092341Z 36004KT 08/M00 A3033 RMK A01 T00791001  RH  057%=      5-min Rain = 0
KJU1 092342Z 34007KT 08/M00 A3033 RMK A01 T00791001  RH  057%=      5-min Rain = 0
KJU1 092343Z 35005KT 08/M00 A3033 RMK A01 T00781001  RH  057%=      5-min Rain = 0
KJU1 092344Z 36005KT 08/M00 A3033 RMK A01 T00791001  RH  057%=      5-min Rain = 0
KJU1 092345Z 36004KT 08/M00 A3033 RMK A01 T00781001  RH  057%=      5-min Rain = 0
KJU1 092346Z 35005KT 08/M00 A3033 RMK A01 T00781001  RH  058%=      5-min Rain = 0
KJU1 092347Z 00005KT 08/M00 A3033 RMK A01 T00771001  RH  058%=      5-min Rain = 0
KJU1 092348Z 35004KT 08/M00 A3033 RMK A01 T00771001  RH  058%=      5-min Rain = 0
KJU1 092349Z 35004KT 08/M00 A3033 RMK A01 T00771001  RH  058%=      5-min Rain = 0
KJU1 092350Z 36003KT 08/00 A3033 RMK A01 T007700-0  RH  058%=      5-min Rain = 0
KJU1 092351Z 35005KT 08/00 A3033 RMK A01 T007600-0  RH  058%=      5-min Rain = 0
KJU1 092352Z 36004KT 08/M00 A3033 RMK A01 T00761001  RH  058%=      5-min Rain = 0
KJU1 092353Z 35004KT 08/M00 A3033 RMK A01 T00761001  RH  058%=      5-min Rain = 0
KJU1 092354Z 00003KT 08/00 A3034 RMK A01 T007600-0  RH  059%=      5-min Rain = 0
KJU1 092355Z 36003KT 08/00 A3034 RMK A01 T007500-0  RH  059%=      5-min Rain = 0
KJU1 092356Z 36003KT 08/00 A3034 RMK A01 T007500-0  RH  059%=      5-min Rain = 0
KJU1 092357Z 35004KT 08/00 A3034 RMK A01 T00750000  RH  059%=      5-min Rain = 0
KJU1 092358Z 36003KT 07/00 A3034 RMK A01 T007400-0  RH  060%=      5-min Rain = 0
KJU1 092359Z 35003KT 07/00 A3034 RMK A01 T00730000  RH  060%=      5-min Rain = 0
KJU1 100000Z 35003KT 07/00 A3034 RMK A01 T00730000  RH  060%=      5-min Rain = 0
KJU1 100001Z 36003KT 07/00 A3034 RMK A01 T00720000  RH  060%=      5-min Rain = 0
KJU1 100002Z 36002KT 07/00 A3034 RMK A01 T00720000  RH  060%=      5-min Rain = 0
KJU1 100003Z 36003KT 07/00 A3034 RMK A01 T00720001  RH  060%=      5-min Rain = 0
KJU1 100004Z 36003KT 07/00 A3034 RMK A01 T00720000  RH  061%=      5-min Rain = 0
KJU1 100005Z 36003KT 07/00 A3034 RMK A01 T00710000  RH  061%=      5-min Rain = 0
KJU1 100006Z 35002KT 07/00 A3034 RMK A01 T00710001  RH  061%=      5-min Rain = 0
KJU1 100007Z 35002KT 07/00 A3034 RMK A01 T00710001  RH  061%=      5-min Rain = 0
KJU1 100008Z 35002KT 07/00 A3034 RMK A01 T00700001  RH  061%=      5-min Rain = 0
KJU1 100009Z 36002KT 07/00 A3034 RMK A01 T00690001  RH  062%=      5-min Rain = 0
KJU1 100010Z 35002KT 07/00 A3034 RMK A01 T00690001  RH  062%=      5-min Rain = 0
KJU1 100011Z 35002KT 07/00 A3034 RMK A01 T00680001  RH  062%=      5-min Rain = 0
KJU1 100012Z 35002KT 07/00 A3034 RMK A01 T00670001  RH  063%=      5-min Rain = 0
KJU1 100013Z 36003KT 07/00 A3035 RMK A01 T00660001  RH  063%=      5-min Rain = 0
KJU1 100014Z 35002KT 06/00 A3035 RMK A01 T00640001  RH  064%=      5-min Rain = 0
KJU1 100015Z 35002KT 06/00 A3035 RMK A01 T00630001  RH  064%=      5-min Rain = 0
KJU1 100016Z 35002KT 06/00 A3035 RMK A01 T00630002  RH  065%=      5-min Rain = 0
KJU1 100017Z 35002KT 06/00 A3035 RMK A01 T00630002  RH  065%=      5-min Rain = 0
KJU1 100018Z 00002KT 06/00 A3035 RMK A01 T00630003  RH  065%=      5-min Rain = 0
KJU1 100019Z 35002KT 06/00 A3035 RMK A01 T00630003  RH  065%=      5-min Rain = 0
KJU1 100020Z 00003KT 06/00 A3035 RMK A01 T00620002  RH  065%=      5-min Rain = 0
KJU1 100021Z 36003KT 06/00 A3035 RMK A01 T00620002  RH  065%=      5-min Rain = 0
KJU1 100022Z 00003KT 06/00 A3035 RMK A01 T00620002  RH  065%=      5-min Rain = 0
KJU1 100023Z 00003KT 06/00 A3035 RMK A01 T00630002  RH  065%=      5-min Rain = 0
KJU1 100024Z 01003KT 06/00 A3035 RMK A01 T00630002  RH  065%=      5-min Rain = 0
KJU1 100025Z 00003KT 06/00 A3035 RMK A01 T00630002  RH  065%=      5-min Rain = 0
KJU1 100026Z 01004KT 06/00 A3035 RMK A01 T00630002  RH  065%=      5-min Rain = 0
KJU1 100027Z 00003KT 06/00 A3035 RMK A01 T00630002  RH  065%=      5-min Rain = 0
KJU1 100028Z 00003KT 06/00 A3035 RMK A01 T00630003  RH  065%=      5-min Rain = 0
KJU1 100029Z 00003KT 06/00 A3035 RMK A01 T00630003  RH  065%=      5-min Rain = 0
KJU1 100030Z 00003KT 06/00 A3035 RMK A01 T00620002  RH  065%=      5-min Rain = 0
KJU1 100031Z 00003KT 06/00 A3035 RMK A01 T00620002  RH  066%=      5-min Rain = 0
KJU1 100032Z 01003KT 06/00 A3035 RMK A01 T00620003  RH  066%=      5-min Rain = 0
KJU1 100033Z 00003KT 06/00 A3035 RMK A01 T00620003  RH  066%=      5-min Rain = 0
KJU1 100034Z 36003KT 06/00 A3035 RMK A01 T00610003  RH  066%=      5-min Rain = 0
KJU1 100035Z 00003KT 06/00 A3035 RMK A01 T00610003  RH  066%=      5-min Rain = 0
KJU1 100036Z 00003KT 06/00 A3035 RMK A01 T00610003  RH  066%=      5-min Rain = 0
KJU1 100037Z 36003KT 06/00 A3035 RMK A01 T00600003  RH  066%=      5-min Rain = 0
KJU1 100038Z 36003KT 06/00 A3035 RMK A01 T00600003  RH  066%=      5-min Rain = 0
KJU1 100039Z 36003KT 06/00 A3035 RMK A01 T00600003  RH  067%=      5-min Rain = 0
KJU1 100040Z 35003KT 06/00 A3035 RMK A01 T00600003  RH  067%=      5-min Rain = 0
KJU1 100041Z 36003KT 06/00 A3035 RMK A01 T00600003  RH  067%=      5-min Rain = 0
KJU1 100042Z 36003KT 06/00 A3035 RMK A01 T00600003  RH  067%=      5-min Rain = 0
KJU1 100043Z 36002KT 06/00 A3035 RMK A01 T00590003  RH  067%=      5-min Rain = 0
KJU1 100044Z 36003KT 06/00 A3035 RMK A01 T00590003  RH  068%=      5-min Rain = 0
KJU1 100045Z 00002KT 06/00 A3035 RMK A01 T00580003  RH  068%=      5-min Rain = 0
KJU1 100046Z 01002KT 06/00 A3035 RMK A01 T00570003  RH  068%=      5-min Rain = 0
KJU1 100047Z 01002KT 06/00 A3035 RMK A01 T00570003  RH  068%=      5-min Rain = 0
KJU1 100048Z 01002KT 06/00 A3035 RMK A01 T00560002  RH  068%=      5-min Rain = 0
KJU1 100049Z 01002KT 06/00 A3035 RMK A01 T00550003  RH  069%=      5-min Rain = 0
KJU1 100050Z 01003KT 05/00 A3035 RMK A01 T00540002  RH  069%=      5-min Rain = 0
KJU1 100051Z 01003KT 05/00 A3035 RMK A01 T00540002  RH  069%=      5-min Rain = 0
KJU1 100052Z 01003KT 05/00 A3035 RMK A01 T00530002  RH  070%=      5-min Rain = 0
KJU1 100053Z 01003KT 05/00 A3035 RMK A01 T00530002  RH  070%=      5-min Rain = 0
KJU1 100054Z 01003KT 05/00 A3035 RMK A01 T00520003  RH  070%=      5-min Rain = 0
KJU1 100055Z 01003KT 05/00 A3035 RMK A01 T00520003  RH  070%=      5-min Rain = 0
KJU1 100056Z 01003KT 05/00 A3035 RMK A01 T00520003  RH  070%=      5-min Rain = 0
KJU1 100057Z 01003KT 05/00 A3035 RMK A01 T00520003  RH  070%=      5-min Rain = 0
KJU1 100058Z 01003KT 05/00 A3035 RMK A01 T00520003  RH  070%=      5-min Rain = 0
KJU1 100059Z 01003KT 05/00 A3035 RMK A01 T00520003  RH  071%=      5-min Rain = 0
KJU1 100100Z 01003KT 05/00 A3035 RMK A01 T00510003  RH  071%=      5-min Rain = 0
KJU1 100101Z 01004KT 05/00 A3035 RMK A01 T00510003  RH  071%=      5-min Rain = 0
KJU1 100102Z 01003KT 05/00 A3035 RMK A01 T00510003  RH  071%=      5-min Rain = 0
KJU1 100103Z 02003KT 05/00 A3036 RMK A01 T00520003  RH  071%=      5-min Rain = 0
KJU1 100104Z 01003KT 05/00 A3036 RMK A01 T00510003  RH  071%=      5-min Rain = 0
KJU1 100105Z 02003KT 05/00 A3036 RMK A01 T00500003  RH  071%=      5-min Rain = 0
KJU1 100106Z 01003KT 05/00 A3036 RMK A01 T00500003  RH  072%=      5-min Rain = 0
KJU1 100107Z 01004KT 05/00 A3036 RMK A01 T00490003  RH  072%=      5-min Rain = 0
KJU1 100108Z 01003KT 05/00 A3036 RMK A01 T00500003  RH  072%=      5-min Rain = 0
KJU1 100109Z 01004KT 05/00 A3036 RMK A01 T00500004  RH  072%=      5-min Rain = 0
KJU1 100110Z 01004KT 05/00 A3036 RMK A01 T00500003  RH  072%=      5-min Rain = 0
KJU1 100111Z 01003KT 05/00 A3036 RMK A01 T00500004  RH  072%=      5-min Rain = 0
KJU1 100112Z 01003KT 05/00 A3036 RMK A01 T00510004  RH  072%=      5-min Rain = 0
KJU1 100113Z 01003KT 05/00 A3036 RMK A01 T00500004  RH  072%=      5-min Rain = 0
KJU1 100114Z 01003KT 05/00 A3036 RMK A01 T00490003  RH  072%=      5-min Rain = 0
KJU1 100115Z 01002KT 05/00 A3036 RMK A01 T00480003  RH  072%=      5-min Rain = 0
KJU1 100116Z 01002KT 05/00 A3036 RMK A01 T00480003  RH  073%=      5-min Rain = 0
KJU1 100117Z 00003KT 05/00 A3036 RMK A01 T00470002  RH  073%=      5-min Rain = 0
KJU1 100118Z 00002KT 05/00 A3036 RMK A01 T00470003  RH  073%=      5-min Rain = 0
KJU1 100119Z 01002KT 05/00 A3036 RMK A01 T00470003  RH  073%=      5-min Rain = 0
KJU1 100120Z 01002KT 05/00 A3036 RMK A01 T00470003  RH  073%=      5-min Rain = 0
KJU1 100121Z 01002KT 05/00 A3036 RMK A01 T00480003  RH  073%=      5-min Rain = 0
KJU1 100122Z 01002KT 05/00 A3036 RMK A01 T00480003  RH  073%=      5-min Rain = 0
KJU1 100123Z 01002KT 05/00 A3036 RMK A01 T00480003  RH  073%=      5-min Rain = 0
KJU1 100124Z 01002KT 05/00 A3036 RMK A01 T00480003  RH  073%=      5-min Rain = 0
KJU1 100125Z 01003KT 05/00 A3036 RMK A01 T00470003  RH  073%=      5-min Rain = 0
KJU1 100126Z 00003KT 05/00 A3036 RMK A01 T00460002  RH  073%=      5-min Rain = 0
KJU1 100127Z 01003KT 05/00 A3036 RMK A01 T00450002  RH  074%=      5-min Rain = 0
KJU1 100128Z 01003KT 04/00 A3036 RMK A01 T00440002  RH  074%=      5-min Rain = 0
KJU1 100129Z 00003KT 04/00 A3036 RMK A01 T00440003  RH  075%=      5-min Rain = 0
KJU1 100130Z 00004KT 05/00 A3036 RMK A01 T00450003  RH  074%=      5-min Rain = 0
KJU1 100131Z 01003KT 05/00 A3036 RMK A01 T00460004  RH  074%=      5-min Rain = 0
KJU1 100132Z 01003KT 05/00 A3036 RMK A01 T00470004  RH  073%=      5-min Rain = 0
KJU1 100133Z 00003KT 05/00 A3036 RMK A01 T00470004  RH  073%=      5-min Rain = 0
KJU1 100134Z 01003KT 05/00 A3036 RMK A01 T00470004  RH  073%=      5-min Rain = 0
KJU1 100135Z 01003KT 05/00 A3036 RMK A01 T00470003  RH  073%=      5-min Rain = 0
KJU1 100136Z 01002KT 05/00 A3037 RMK A01 T00460003  RH  073%=      5-min Rain = 0
KJU1 100137Z 00002KT 05/00 A3037 RMK A01 T00460003  RH  074%=      5-min Rain = 0
KJU1 100138Z 01002KT 05/00 A3037 RMK A01 T00460003  RH  074%=      5-min Rain = 0
KJU1 100139Z 01001KT 05/00 A3037 RMK A01 T00450002  RH  074%=      5-min Rain = 0
KJU1 100140Z 02001KT 04/00 A3037 RMK A01 T00430001  RH  074%=      5-min Rain = 0
KJU1 100141Z 01001KT 04/00 A3037 RMK A01 T00420000  RH  074%=      5-min Rain = 0
KJU1 100142Z 01001KT 04/M00 A3037 RMK A01 T00401001  RH  075%=      5-min Rain = 0
KJU1 100143Z 36001KT 04/M00 A3037 RMK A01 T00391001  RH  075%=      5-min Rain = 0
KJU1 100144Z 03001KT 04/00 A3037 RMK A01 T003800-0  RH  076%=      5-min Rain = 0
KJU1 100145Z 03001KT 04/M00 A3037 RMK A01 T00361002  RH  076%=      5-min Rain = 0
KJU1 100146Z 01001KT 03/M00 A3037 RMK A01 T00331003  RH  077%=      5-min Rain = 0
KJU1 100147Z 35000KT 03/M00 A3037 RMK A01 T00331002  RH  078%=      5-min Rain = 0
KJU1 100148Z 00000KT 03/M00 A3037 RMK A01 T00311002  RH  078%=      5-min Rain = 0
KJU1 100149Z 00000KT 03/M00 A3037 RMK A01 T00301002  RH  079%=      5-min Rain = 0
KJU1 100150Z 03000KT 03/M00 A3037 RMK A01 T00301001  RH  080%=      5-min Rain = 0
KJU1 100151Z 03001KT 03/M00 A3037 RMK A01 T00291002  RH  080%=      5-min Rain = 0
KJU1 100152Z 04001KT 03/M00 A3037 RMK A01 T00281003  RH  080%=      5-min Rain = 0
KJU1 100153Z 03001KT 03/M00 A3037 RMK A01 T00281003  RH  081%=      5-min Rain = 0
KJU1 100154Z 04001KT 03/M00 A3037 RMK A01 T00281001  RH  081%=      5-min Rain = 0
KJU1 100155Z 04002KT 03/M00 A3037 RMK A01 T00271001  RH  081%=      5-min Rain = 0
KJU1 100156Z 04002KT 03/M00 A3037 RMK A01 T00271001  RH  082%=      5-min Rain = 0
KJU1 100157Z 04002KT 03/00 A3037 RMK A01 T002700-0  RH  082%=      5-min Rain = 0
KJU1 100158Z 04002KT 03/00 A3037 RMK A01 T00280001  RH  082%=      5-min Rain = 0
KJU1 100159Z 04003KT 03/00 A3037 RMK A01 T00300002  RH  082%=      5-min Rain = 0
KJU1 100200Z 04003KT 03/00 A3037 RMK A01 T00300001  RH  081%=      5-min Rain = 0
KJU1 100201Z 04003KT 03/00 A3037 RMK A01 T00300001  RH  081%=      5-min Rain = 0
KJU1 100202Z 04003KT 03/00 A3037 RMK A01 T00300001  RH  081%=      5-min Rain = 0
KJU1 100203Z 05003KT 03/00 A3037 RMK A01 T00300001  RH  081%=      5-min Rain = 0
KJU1 100204Z 04003KT 03/00 A3037 RMK A01 T002900-0  RH  081%=      5-min Rain = 0
KJU1 100205Z 04003KT 03/M00 A3037 RMK A01 T00281001  RH  081%=      5-min Rain = 0
KJU1 100206Z 05003KT 03/M00 A3037 RMK A01 T00281001  RH  082%=      5-min Rain = 0
KJU1 100207Z 04003KT 03/M00 A3037 RMK A01 T00271001  RH  082%=      5-min Rain = 0
KJU1 100208Z 05003KT 03/M00 A3037 RMK A01 T00261002  RH  082%=      5-min Rain = 0
KJU1 100209Z 04003KT 03/M00 A3037 RMK A01 T00251002  RH  082%=      5-min Rain = 0
KJU1 100210Z 04003KT 02/M00 A3037 RMK A01 T00241001  RH  083%=      5-min Rain = 0
KJU1 100211Z 05003KT 03/00 A3037 RMK A01 T00250001  RH  084%=      5-min Rain = 0
KJU1 100212Z 04003KT 03/00 A3037 RMK A01 T00250001  RH  084%=      5-min Rain = 0
KJU1 100213Z 04003KT 03/00 A3037 RMK A01 T00250001  RH  084%=      5-min Rain = 0
KJU1 100214Z 04003KT 03/00 A3037 RMK A01 T00260002  RH  084%=      5-min Rain = 0
KJU1 100215Z 04003KT 03/00 A3037 RMK A01 T00270003  RH  084%=      5-min Rain = 0
KJU1 100216Z 04002KT 03/00 A3037 RMK A01 T00280002  RH  083%=      5-min Rain = 0
KJU1 100217Z 04002KT 03/00 A3037 RMK A01 T00280002  RH  083%=      5-min Rain = 0
KJU1 100218Z 04002KT 03/00 A3037 RMK A01 T00270001  RH  083%=      5-min Rain = 0
KJU1 100219Z 04002KT 03/00 A3037 RMK A01 T002600-0  RH  083%=      5-min Rain = 0
KJU1 100220Z 04002KT 03/M00 A3037 RMK A01 T00261001  RH  083%=      5-min Rain = 0
KJU1 100221Z 04002KT 03/M00 A3037 RMK A01 T00251001  RH  083%=      5-min Rain = 0
KJU1 100222Z 04002KT 03/M00 A3037 RMK A01 T00251001  RH  083%=      5-min Rain = 0
KJU1 100223Z 04002KT 02/00 A3037 RMK A01 T002400-0  RH  084%=      5-min Rain = 0
KJU1 100224Z 04002KT 02/00 A3038 RMK A01 T00240000  RH  084%=      5-min Rain = 0
KJU1 100225Z 04002KT 03/00 A3038 RMK A01 T00250001  RH  084%=      5-min Rain = 0
KJU1 100226Z 05002KT 03/00 A3038 RMK A01 T00250001  RH  084%=      5-min Rain = 0
KJU1 100227Z 05002KT 03/00 A3038 RMK A01 T00250001  RH  084%=      5-min Rain = 0
KJU1 100228Z 05002KT 02/00 A3038 RMK A01 T002400-0  RH  084%=      5-min Rain = 0
KJU1 100229Z 05002KT 02/M01 A3038 RMK A01 T00211005  RH  083%=      5-min Rain = 0
KJU1 100230Z 05001KT 02/M01 A3038 RMK A01 T00181008  RH  083%=      5-min Rain = 0
KJU1 100231Z 05002KT 02/M01 A3038 RMK A01 T00171008  RH  084%=      5-min Rain = 0
KJU1 100232Z 05001KT 02/M01 A3038 RMK A01 T00161007  RH  084%=      5-min Rain = 0
KJU1 100233Z 06001KT 02/M01 A3038 RMK A01 T00151007  RH  085%=      5-min Rain = 0
KJU1 100234Z 05001KT 02/M01 A3038 RMK A01 T00151007  RH  086%=      5-min Rain = 0
KJU1 100235Z 05001KT 02/M01 A3038 RMK A01 T00151005  RH  087%=      5-min Rain = 0
KJU1 100236Z 04001KT 02/M00 A3038 RMK A01 T00161003  RH  087%=      5-min Rain = 0
KJU1 100237Z 04000KT 02/M00 A3038 RMK A01 T00161003  RH  087%=      5-min Rain = 0
KJU1 100238Z 04001KT 02/M00 A3038 RMK A01 T00161003  RH  087%=      5-min Rain = 0
KJU1 100239Z 04001KT 02/M00 A3038 RMK A01 T00161003  RH  087%=      5-min Rain = 0
KJU1 100240Z 05001KT 02/M00 A3038 RMK A01 T00161004  RH  087%=      5-min Rain = 0
KJU1 100241Z 05001KT 02/M00 A3038 RMK A01 T00151004  RH  087%=      5-min Rain = 0
KJU1 100242Z 04001KT 01/M01 A3038 RMK A01 T00141005  RH  087%=      5-min Rain = 0
KJU1 100243Z 04001KT 01/M01 A3038 RMK A01 T00131007  RH  087%=      5-min Rain = 0
KJU1 100244Z 04001KT 01/M01 A3038 RMK A01 T00131007  RH  087%=      5-min Rain = 0
KJU1 100245Z 05001KT 01/M01 A3038 RMK A01 T00131005  RH  088%=      5-min Rain = 0
KJU1 100246Z 04001KT 01/M01 A3038 RMK A01 T00131005  RH  088%=      5-min Rain = 0
KJU1 100247Z 04001KT 01/M01 A3038 RMK A01 T00131006  RH  088%=      5-min Rain = 0
KJU1 100248Z 04000KT 01/M01 A3038 RMK A01 T00121006  RH  088%=      5-min Rain = 0
KJU1 100249Z 00000KT 01/M01 A3038 RMK A01 T00111007  RH  088%=      5-min Rain = 0
KJU1 100250Z 00000KT 01/M01 A3038 RMK A01 T00111006  RH  088%=      5-min Rain = 0
KJU1 100251Z 00000KT 01/M01 A3038 RMK A01 T00111006  RH  088%=      5-min Rain = 0
KJU1 100252Z 34000KT 01/M01 A3038 RMK A01 T00111007  RH  088%=      5-min Rain = 0
KJU1 100253Z 22001KT 01/M01 A3038 RMK A01 T00101007  RH  088%=      5-min Rain = 0
KJU1 100254Z 22001KT 01/M01 A3038 RMK A01 T00091007  RH  089%=      5-min Rain = 0
KJU1 100255Z 22002KT 01/M01 A3038 RMK A01 T00081009  RH  089%=      5-min Rain = 0
KJU1 100256Z 22002KT 01/M01 A3038 RMK A01 T00071010  RH  089%=      5-min Rain = 0
KJU1 100257Z 21002KT 01/M01 A3039 RMK A01 T00061009  RH  090%=      5-min Rain = 0
KJU1 100258Z 21003KT 01/M01 A3039 RMK A01 T00071007  RH  090%=      5-min Rain = 0
KJU1 100259Z 20002KT 01/M00 A3039 RMK A01 T00091004  RH  091%=      5-min Rain = 0
KJU1 100300Z 20002KT 01/M00 A3039 RMK A01 T00111001  RH  092%=      5-min Rain = 0
KJU1 100301Z 20002KT 01/00 A3039 RMK A01 T00120000  RH  092%=      5-min Rain = 0
KJU1 100302Z 21003KT 01/M00 A3039 RMK A01 T00101004  RH  091%=      5-min Rain = 0
KJU1 100303Z 21003KT 01/00 A3039 RMK A01 T001100-0  RH  092%=      5-min Rain = 0
KJU1 100304Z 21003KT 01/00 A3039 RMK A01 T00130002  RH  093%=      5-min Rain = 0
KJU1 100305Z 21003KT 01/00 A3039 RMK A01 T00120001  RH  092%=      5-min Rain = 0
KJU1 100306Z 22003KT 01/00 A3039 RMK A01 T001100-0  RH  092%=      5-min Rain = 0
KJU1 100307Z 22003KT 01/M00 A3039 RMK A01 T00101001  RH  092%=      5-min Rain = 0
KJU1 100308Z 22003KT 01/00 A3039 RMK A01 T001100-0  RH  093%=      5-min Rain = 0
KJU1 100309Z 22002KT 01/00 A3039 RMK A01 T001100-0  RH  093%=      5-min Rain = 0
KJU1 100310Z 22002KT 01/00 A3039 RMK A01 T00110000  RH  093%=      5-min Rain = 0
KJU1 100311Z 22002KT 01/00 A3039 RMK A01 T00110001  RH  093%=      5-min Rain = 0
KJU1 100312Z 22001KT 01/00 A3039 RMK A01 T00110001  RH  093%=      5-min Rain = 0
KJU1 100313Z 21002KT 01/M00 A3039 RMK A01 T00091001  RH  093%=      5-min Rain = 0
KJU1 100314Z 21002KT 01/M01 A3039 RMK A01 T00061006  RH  092%=      5-min Rain = 0
KJU1 100315Z 21001KT 00/M01 A3039 RMK A01 T00031009  RH  092%=      5-min Rain = 0
KJU1 100316Z 22001KT 00/M01 A3039 RMK A01 T00011011  RH  092%=      5-min Rain = 0
KJU1 100317Z 21002KT 00/M01 A3039 RMK A01 T00011011  RH  092%=      5-min Rain = 0
KJU1 100318Z 21002KT 00/M01 A3039 RMK A01 T00021008  RH  093%=      5-min Rain = 0
KJU1 100319Z 20001KT 00/M01 A3039 RMK A01 T00021007  RH  093%=      5-min Rain = 0
KJU1 100320Z 20001KT 00/M01 A3039 RMK A01 T00031007  RH  093%=      5-min Rain = 0
KJU1 100321Z 20001KT 00/M01 A3039 RMK A01 T00011008  RH  093%=      5-min Rain = 0
KJU1 100322Z 20001KT 00/01 A3039 RMK A01 T00-00-11  RH  093%=      5-min Rain = 0
KJU1 100323Z 21001KT M00/M01 A3039 RMK A01 T10021012  RH  093%=      5-min Rain = 0
KJU1 100324Z 24002KT M00/M01 A3039 RMK A01 T10021012  RH  093%=      5-min Rain = 0
KJU1 100325Z 25001KT M00/M01 A3039 RMK A01 T10021012  RH  093%=      5-min Rain = 0
KJU1 100326Z 25001KT M00/M01 A3039 RMK A01 T10021012  RH  093%=      5-min Rain = 0
KJU1 100327Z 25000KT M00/M01 A3039 RMK A01 T10031012  RH  093%=      5-min Rain = 0
KJU1 100328Z 00000KT M01/M02 A3039 RMK A01 T10051015  RH  093%=      5-min Rain = 0
KJU1 100329Z 24000KT M01/M01 A3039 RMK A01 T10051014  RH  093%=      5-min Rain = 0
KJU1 100330Z 24001KT M00/M01 A3039 RMK A01 T10031011  RH  094%=      5-min Rain = 0
KJU1 100331Z 24001KT M00/M01 A3039 RMK A01 T10011009  RH  095%=      5-min Rain = 0
KJU1 100332Z 24001KT 00/01 A304 RMK A01 T00-000-8  RH  095%=      5-min Rain = 0
KJU1 100333Z 00000KT 00/01 A304 RMK A01 T000000-7  RH  095%=      5-min Rain = 0
KJU1 100334Z 00000KT M00/M01 A304 RMK A01 T10011009  RH  094%=      5-min Rain = 0
KJU1 100335Z 00000KT M01/M01 A304 RMK A01 T10051014  RH  093%=      5-min Rain = 0
KJU1 100336Z 00000KT M01/M02 A304 RMK A01 T10081018  RH  093%=      5-min Rain = 0
KJU1 100337Z 00000KT M01/M02 A304 RMK A01 T10101020  RH  093%=      5-min Rain = 0
KJU1 100338Z 20001KT M01/M02 A304 RMK A01 T10081016  RH  094%=      5-min Rain = 0
KJU1 100339Z 20001KT M00/M01 A304 RMK A01 T10031010  RH  095%=      5-min Rain = 0
KJU1 100340Z 20001KT 00/01 A304 RMK A01 T000000-6  RH  096%=      5-min Rain = 0
KJU1 100341Z 20002KT M00/M01 A304 RMK A01 T10041012  RH  094%=      5-min Rain = 0
KJU1 100342Z 20002KT M01/M02 A304 RMK A01 T10071017  RH  094%=      5-min Rain = 0
KJU1 100343Z 20001KT M01/M02 A304 RMK A01 T10081017  RH  094%=      5-min Rain = 0
KJU1 100344Z 20001KT M01/M02 A304 RMK A01 T10091018  RH  094%=      5-min Rain = 0
KJU1 100345Z 21001KT M01/M02 A304 RMK A01 T10101018  RH  094%=      5-min Rain = 0
KJU1 100346Z 21001KT M01/M02 A304 RMK A01 T10101019  RH  094%=      5-min Rain = 0
KJU1 100347Z 21002KT M01/M02 A304 RMK A01 T10091017  RH  095%=      5-min Rain = 0
KJU1 100348Z 21001KT M01/M01 A304 RMK A01 T10061013  RH  095%=      5-min Rain = 0
KJU1 100349Z 20001KT M01/M01 A304 RMK A01 T10051011  RH  096%=      5-min Rain = 0
KJU1 100350Z 20001KT M01/M02 A304 RMK A01 T10071015  RH  095%=      5-min Rain = 0
KJU1 100351Z 19001KT M01/M02 A304 RMK A01 T10101018  RH  094%=      5-min Rain = 0
KJU1 100352Z 20001KT M01/M02 A304 RMK A01 T10111019  RH  094%=      5-min Rain = 0
KJU1 100353Z 21001KT M01/M02 A304 RMK A01 T10121020  RH  094%=      5-min Rain = 0
KJU1 100354Z 22001KT M01/M02 A304 RMK A01 T10131022  RH  094%=      5-min Rain = 0
KJU1 100355Z 22001KT M01/M02 A304 RMK A01 T10141022  RH  094%=      5-min Rain = 0
KJU1 100356Z 20001KT M01/M02 A304 RMK A01 T10141021  RH  095%=      5-min Rain = 0
KJU1 100357Z 20001KT M01/M02 A304 RMK A01 T10121019  RH  095%=      5-min Rain = 0
KJU1 100358Z 20001KT M01/M02 A304 RMK A01 T10111018  RH  095%=      5-min Rain = 0
KJU1 100359Z 20001KT M01/M02 A304 RMK A01 T10121019  RH  095%=      5-min Rain = 0
KJU1 100400Z 20001KT M01/M02 A304 RMK A01 T10131021  RH  095%=      5-min Rain = 0
KJU1 100401Z 21001KT M01/M02 A304 RMK A01 T10141021  RH  095%=      5-min Rain = 0
KJU1 100402Z 21001KT M01/M02 A304 RMK A01 T10141021  RH  095%=      5-min Rain = 0
KJU1 100403Z 22002KT M01/M02 A304 RMK A01 T10131020  RH  095%=      5-min Rain = 0
KJU1 100404Z 22002KT M01/M02 A304 RMK A01 T10111017  RH  096%=      5-min Rain = 0
KJU1 100405Z 22001KT M01/M02 A304 RMK A01 T10111017  RH  096%=      5-min Rain = 0
KJU1 100406Z 22001KT M01/M02 A304 RMK A01 T10111017  RH  096%=      5-min Rain = 0
KJU1 100407Z 21001KT M01/M02 A304 RMK A01 T10131021  RH  095%=      5-min Rain = 0
KJU1 100408Z 21001KT M02/M02 A304 RMK A01 T10161023  RH  095%=      5-min Rain = 0
KJU1 100409Z 21001KT M01/M02 A304 RMK A01 T10141020  RH  096%=      5-min Rain = 0
KJU1 100410Z 21001KT M01/M02 A304 RMK A01 T10121018  RH  096%=      5-min Rain = 0
KJU1 100411Z 20001KT M01/M02 A304 RMK A01 T10131019  RH  096%=      5-min Rain = 0
KJU1 100412Z 19001KT M02/M02 A3041 RMK A01 T10151022  RH  095%=      5-min Rain = 0
KJU1 100413Z 19001KT M02/M02 A3041 RMK A01 T10171024  RH  095%=      5-min Rain = 0
KJU1 100414Z 19001KT M02/M02 A3041 RMK A01 T10171024  RH  095%=      5-min Rain = 0
KJU1 100415Z 19001KT M02/M02 A3041 RMK A01 T10171023  RH  095%=      5-min Rain = 0
KJU1 100416Z 18001KT M01/M02 A3041 RMK A01 T10141019  RH  096%=      5-min Rain = 0
KJU1 100417Z 18002KT M01/M01 A3041 RMK A01 T10081012  RH  097%=      5-min Rain = 0
KJU1 100418Z 18002KT M01/M01 A3041 RMK A01 T10051008  RH  097%=      5-min Rain = 0
KJU1 100419Z 18002KT M01/M01 A3041 RMK A01 T10061010  RH  097%=      5-min Rain = 0
KJU1 100420Z 18002KT M01/M02 A3041 RMK A01 T10111018  RH  096%=      5-min Rain = 0
KJU1 100421Z 18002KT M02/M02 A3041 RMK A01 T10151022  RH  095%=      5-min Rain = 0
KJU1 100422Z 18002KT M02/M02 A3041 RMK A01 T10171024  RH  095%=      5-min Rain = 0
KJU1 100423Z 18002KT M02/M03 A3041 RMK A01 T10191025  RH  095%=      5-min Rain = 0
KJU1 100424Z 18002KT M02/M03 A3041 RMK A01 T10191025  RH  095%=      5-min Rain = 0
KJU1 100425Z 19002KT M02/M02 A3041 RMK A01 T10171023  RH  096%=      5-min Rain = 0
KJU1 100426Z 19002KT M01/M02 A3041 RMK A01 T10131018  RH  097%=      5-min Rain = 0
KJU1 100427Z 19003KT M01/M01 A3041 RMK A01 T10091013  RH  097%=      5-min Rain = 0
KJU1 100428Z 20003KT M00/M01 A3041 RMK A01 T10041007  RH  098%=      5-min Rain = 0
KJU1 100429Z 21003KT M00/M01 A3041 RMK A01 T10021005  RH  098%=      5-min Rain = 0
KJU1 100430Z 21002KT M00/M01 A3041 RMK A01 T10031007  RH  097%=      5-min Rain = 0
KJU1 100431Z 20001KT M01/M01 A3041 RMK A01 T10061011  RH  097%=      5-min Rain = 0
KJU1 100432Z 19001KT M01/M02 A3041 RMK A01 T10101016  RH  096%=      5-min Rain = 0
KJU1 100433Z 18002KT M01/M02 A3041 RMK A01 T10111016  RH  096%=      5-min Rain = 0
KJU1 100434Z 19002KT M01/M01 A3041 RMK A01 T10091013  RH  097%=      5-min Rain = 0
KJU1 100435Z 20003KT M01/M01 A3041 RMK A01 T10061010  RH  097%=      5-min Rain = 0
KJU1 100436Z 20003KT M00/M01 A3041 RMK A01 T10041008  RH  097%=      5-min Rain = 0
KJU1 100437Z 19003KT M00/M01 A3041 RMK A01 T10031007  RH  097%=      5-min Rain = 0
KJU1 100438Z 19002KT M00/M01 A3041 RMK A01 T10031008  RH  097%=      5-min Rain = 0
KJU1 100439Z 19002KT M01/M01 A3041 RMK A01 T10061011  RH  097%=      5-min Rain = 0
KJU1 100440Z 19002KT M01/M01 A3041 RMK A01 T10081014  RH  096%=      5-min Rain = 0
KJU1 100441Z 19002KT M01/M02 A3041 RMK A01 T10111017  RH  096%=      5-min Rain = 0
KJU1 100442Z 19002KT M01/M02 A3041 RMK A01 T10141020  RH  095%=      5-min Rain = 0
KJU1 100443Z 19002KT M02/M02 A3041 RMK A01 T10161023  RH  095%=      5-min Rain = 0
KJU1 100444Z 19002KT M02/M02 A3041 RMK A01 T10171024  RH  095%=      5-min Rain = 0
KJU1 100445Z 20002KT M02/M02 A3041 RMK A01 T10171023  RH  095%=      5-min Rain = 0
KJU1 100446Z 20002KT M02/M02 A3041 RMK A01 T10171022  RH  096%=      5-min Rain = 0
KJU1 100447Z 20002KT M02/M02 A3041 RMK A01 T10161021  RH  096%=      5-min Rain = 0
KJU1 100448Z 20002KT M02/M02 A3041 RMK A01 T10151021  RH  096%=      5-min Rain = 0
KJU1 100449Z 20003KT M02/M02 A3041 RMK A01 T10161021  RH  096%=      5-min Rain = 0
KJU1 100450Z 20002KT M02/M02 A3041 RMK A01 T10171023  RH  096%=      5-min Rain = 0
KJU1 100451Z 20002KT M02/M02 A3041 RMK A01 T10181023  RH  096%=      5-min Rain = 0
KJU1 100452Z 20002KT M02/M02 A3041 RMK A01 T10171023  RH  096%=      5-min Rain = 0
KJU1 100453Z 19003KT M02/M02 A3041 RMK A01 T10171022  RH  096%=      5-min Rain = 0
KJU1 100454Z 18003KT M02/M02 A3041 RMK A01 T10161021  RH  096%=      5-min Rain = 0
KJU1 100455Z 19003KT M02/M02 A3041 RMK A01 T10151019  RH  097%=      5-min Rain = 0
KJU1 100456Z 19003KT M01/M02 A3041 RMK A01 T10141018  RH  097%=      5-min Rain = 0
KJU1 100457Z 19003KT M01/M02 A3041 RMK A01 T10141019  RH  097%=      5-min Rain = 0
KJU1 100458Z 19003KT M01/M02 A3041 RMK A01 T10141019  RH  097%=      5-min Rain = 0
KJU1 100459Z 19003KT M01/M02 A3041 RMK A01 T10141018  RH  097%=      5-min Rain = 0
KJU1 100500Z 20003KT M01/M02 A3041 RMK A01 T10141018  RH  097%=      5-min Rain = 0
KJU1 100501Z 19003KT M01/M02 A3041 RMK A01 T10141019  RH  097%=      5-min Rain = 0
KJU1 100502Z 19003KT M02/M02 A3041 RMK A01 T10151020  RH  097%=      5-min Rain = 0
KJU1 100503Z 19003KT M02/M02 A3041 RMK A01 T10151020  RH  097%=      5-min Rain = 0
KJU1 100504Z 19003KT M01/M02 A3041 RMK A01 T10141018  RH  097%=      5-min Rain = 0
KJU1 100505Z 19003KT M01/M02 A3041 RMK A01 T10131017  RH  097%=      5-min Rain = 0
KJU1 100506Z 19003KT M01/M02 A3041 RMK A01 T10111015  RH  097%=      5-min Rain = 0
KJU1 100507Z 19003KT M01/M02 A3041 RMK A01 T10111015  RH  097%=      5-min Rain = 0
KJU1 100508Z 20003KT M01/M02 A3041 RMK A01 T10121016  RH  097%=      5-min Rain = 0
KJU1 100509Z 20003KT M01/M02 A3041 RMK A01 T10121016  RH  097%=      5-min Rain = 0
KJU1 100510Z 20003KT M01/M02 A3041 RMK A01 T10141019  RH  097%=      5-min Rain = 0
KJU1 100511Z 19003KT M02/M02 A3041 RMK A01 T10151020  RH  097%=      5-min Rain = 0
KJU1 100512Z 19003KT M02/M02 A3041 RMK A01 T10151019  RH  097%=      5-min Rain = 0
KJU1 100513Z 19002KT M01/M02 A3041 RMK A01 T10131017  RH  097%=      5-min Rain = 0
KJU1 100514Z 19003KT M01/M02 A3041 RMK A01 T10121016  RH  097%=      5-min Rain = 0
KJU1 100515Z 19003KT M01/M02 A3041 RMK A01 T10111015  RH  098%=      5-min Rain = 0
KJU1 100516Z 19003KT M01/M01 A3041 RMK A01 T10111014  RH  097%=      5-min Rain = 0
KJU1 100517Z 19003KT M01/M02 A3041 RMK A01 T10121015  RH  097%=      5-min Rain = 0
KJU1 100518Z 19003KT M01/M02 A3041 RMK A01 T10121016  RH  097%=      5-min Rain = 0
KJU1 100519Z 19003KT M01/M02 A3041 RMK A01 T10111015  RH  097%=      5-min Rain = 0
KJU1 100520Z 19003KT M01/M01 A3041 RMK A01 T10101014  RH  098%=      5-min Rain = 0
KJU1 100521Z 18003KT M01/M01 A3041 RMK A01 T10091013  RH  098%=      5-min Rain = 0
KJU1 100522Z 18003KT M01/M01 A3041 RMK A01 T10091013  RH  098%=      5-min Rain = 0
KJU1 100523Z 18003KT M01/M01 A3041 RMK A01 T10091013  RH  098%=      5-min Rain = 0
KJU1 100524Z 18003KT M01/M01 A3041 RMK A01 T10091013  RH  098%=      5-min Rain = 0
KJU1 100525Z 18003KT M01/M01 A3041 RMK A01 T10091012  RH  098%=      5-min Rain = 0
KJU1 100526Z 18003KT M01/M01 A3041 RMK A01 T10091012  RH  098%=      5-min Rain = 0
KJU1 100527Z 18003KT M01/M01 A3041 RMK A01 T10091012  RH  098%=      5-min Rain = 0
KJU1 100528Z 18004KT M01/M01 A3041 RMK A01 T10091013  RH  097%=      5-min Rain = 0
KJU1 100529Z 18004KT M01/M02 A3041 RMK A01 T10111015  RH  097%=      5-min Rain = 0
KJU1 100530Z 18004KT M01/M02 A3041 RMK A01 T10121016  RH  097%=      5-min Rain = 0
KJU1 100531Z 18004KT M01/M02 A3041 RMK A01 T10121016  RH  097%=      5-min Rain = 0
KJU1 100532Z 18004KT M01/M02 A3041 RMK A01 T10121016  RH  097%=      5-min Rain = 0
KJU1 100533Z 18004KT M01/M02 A3041 RMK A01 T10121016  RH  097%=      5-min Rain = 0
KJU1 100534Z 18004KT M01/M02 A3041 RMK A01 T10121016  RH  097%=      5-min Rain = 0
KJU1 100535Z 18004KT M01/M02 A3041 RMK A01 T10121016  RH  097%=      5-min Rain = 0
KJU1 100536Z 19004KT M01/M02 A3041 RMK A01 T10121016  RH  097%=      5-min Rain = 0
KJU1 100537Z 19004KT M01/M02 A3041 RMK A01 T10121016  RH  097%=      5-min Rain = 0
KJU1 100538Z 18004KT M01/M02 A3041 RMK A01 T10121015  RH  097%=      5-min Rain = 0
KJU1 100539Z 18004KT M01/M02 A3041 RMK A01 T10111015  RH  098%=      5-min Rain = 0
KJU1 100540Z 18004KT M01/M02 A3041 RMK A01 T10111015  RH  097%=      5-min Rain = 0
KJU1 100541Z 18004KT M01/M02 A3041 RMK A01 T10111015  RH  097%=      5-min Rain = 0
KJU1 100542Z 18003KT M01/M02 A3041 RMK A01 T10111015  RH  097%=      5-min Rain = 0
KJU1 100543Z 18003KT M01/M02 A3041 RMK A01 T10121015  RH  097%=      5-min Rain = 0
KJU1 100544Z 18004KT M01/M02 A3041 RMK A01 T10111015  RH  097%=      5-min Rain = 0
KJU1 100545Z 18004KT M01/M01 A3041 RMK A01 T10111014  RH  097%=      5-min Rain = 0
KJU1 100546Z 18003KT M01/M02 A3041 RMK A01 T10111015  RH  098%=      5-min Rain = 0
KJU1 100547Z 18003KT M01/M01 A3041 RMK A01 T10111014  RH  098%=      5-min Rain = 0
KJU1 100548Z 17003KT M01/M01 A3041 RMK A01 T10101013  RH  098%=      5-min Rain = 0
KJU1 100549Z 18002KT M01/M01 A3041 RMK A01 T10101014  RH  098%=      5-min Rain = 0
KJU1 100550Z 17002KT M01/M01 A3041 RMK A01 T10101014  RH  098%=      5-min Rain = 0
KJU1 100551Z 18002KT M01/M01 A3041 RMK A01 T10101013  RH  098%=      5-min Rain = 0
KJU1 100552Z 18002KT M01/M01 A3041 RMK A01 T10101014  RH  098%=      5-min Rain = 0
KJU1 100553Z 18002KT M01/M01 A3041 RMK A01 T10101014  RH  097%=      5-min Rain = 0
KJU1 100554Z 18002KT M01/M01 A3041 RMK A01 T10101014  RH  097%=      5-min Rain = 0
KJU1 100555Z 18002KT M01/M02 A3041 RMK A01 T10111015  RH  097%=      5-min Rain = 0
KJU1 100556Z 18002KT M01/M02 A3041 RMK A01 T10111015  RH  097%=      5-min Rain = 0
KJU1 100557Z 18002KT M01/M02 A3041 RMK A01 T10111015  RH  097%=      5-min Rain = 0
KJU1 100558Z 19002KT M01/M02 A3041 RMK A01 T10111015  RH  097%=      5-min Rain = 0
KJU1 100559Z 18002KT M01/M02 A3041 RMK A01 T10121016  RH  097%=      5-min Rain = 0

Page generated in 0.1649 seconds.